<?xml version="1.0" encoding="UTF-8" standalone="no" ?>
<gpx xmlns="http://www.topografix.com/GPX/1/1" xmlns:xsi="http://www.w3.org/2001/XMLSchema-instance" xsi:schemaLocation="http://www.topografix.com/GPX/1/1 http://www.topografix.com/GPX/1/1/gpx.xsd" version="1.1" creator="VisuGPX - https://www.visugpx.com">
  <metadata>
    <name>E71:Santander-Santi on GPSies.com</name>
  </metadata>
  <wpt lat="43.39368" lon="-4.01665">
    <ele>7</ele>
    <name><![CDATA[WP 1]]></name>
    <desc><![CDATA[Alberque el regato de las anguillas 942824028: 26.6km]]></desc>
    <type><![CDATA[Hostel]]></type>
  </wpt>
  <wpt lat="43.39102" lon="-4.07968">
    <ele>82</ele>
    <name><![CDATA[WP 2]]></name>
    <desc><![CDATA[Alberque Arco Iris: 942897946: Quevada km35.5]]></desc>
    <type><![CDATA[Hostel]]></type>
  </wpt>
  <wpt lat="43.39108" lon="-4.10684">
    <ele>82</ele>
    <name><![CDATA[WP 3]]></name>
    <desc><![CDATA[Alberque Santillana Del Mar Fin etape 942824028]]></desc>
    <type><![CDATA[Hostel]]></type>
  </wpt>
  <trk>
    <name><![CDATA[E71:Santander-Santi on GPSies.com]]></name>
    <trkseg>
      <trkpt lat="43.46062" lon="-3.80964">
        <ele>25</ele>
        <time>2010-01-01T00:00:00Z</time>
      </trkpt>
      <trkpt lat="43.46061" lon="-3.80965">
        <ele>25</ele>
        <time>2010-01-01T00:00:00Z</time>
      </trkpt>
      <trkpt lat="43.46087" lon="-3.80972">
        <ele>22</ele>
        <time>2010-01-01T00:00:11Z</time>
      </trkpt>
      <trkpt lat="43.46099" lon="-3.80971">
        <ele>22</ele>
        <time>2010-01-01T00:00:15Z</time>
      </trkpt>
      <trkpt lat="43.46132" lon="-3.80953">
        <ele>20</ele>
        <time>2010-01-01T00:00:30Z</time>
      </trkpt>
      <trkpt lat="43.46138" lon="-3.80952">
        <ele>20</ele>
        <time>2010-01-01T00:00:32Z</time>
      </trkpt>
      <trkpt lat="43.46145" lon="-3.80954">
        <ele>19</ele>
        <time>2010-01-01T00:00:35Z</time>
      </trkpt>
      <trkpt lat="43.46163" lon="-3.81031">
        <ele>18</ele>
        <time>2010-01-01T00:00:58Z</time>
      </trkpt>
      <trkpt lat="43.46184" lon="-3.81102">
        <ele>16</ele>
        <time>2010-01-01T00:01:21Z</time>
      </trkpt>
      <trkpt lat="43.46192" lon="-3.81151">
        <ele>14</ele>
        <time>2010-01-01T00:01:35Z</time>
      </trkpt>
      <trkpt lat="43.46187" lon="-3.81217">
        <ele>13</ele>
        <time>2010-01-01T00:01:55Z</time>
      </trkpt>
      <trkpt lat="43.46179" lon="-3.81291">
        <ele>16</ele>
        <time>2010-01-01T00:02:16Z</time>
      </trkpt>
      <trkpt lat="43.46178" lon="-3.81339">
        <ele>18</ele>
        <time>2010-01-01T00:02:30Z</time>
      </trkpt>
      <trkpt lat="43.4618" lon="-3.81356">
        <ele>16</ele>
        <time>2010-01-01T00:02:35Z</time>
      </trkpt>
      <trkpt lat="43.46177" lon="-3.81401">
        <ele>15</ele>
        <time>2010-01-01T00:02:48Z</time>
      </trkpt>
      <trkpt lat="43.46175" lon="-3.8141">
        <ele>15</ele>
        <time>2010-01-01T00:02:51Z</time>
      </trkpt>
      <trkpt lat="43.4617" lon="-3.81411">
        <ele>15</ele>
        <time>2010-01-01T00:02:53Z</time>
      </trkpt>
      <trkpt lat="43.46162" lon="-3.81409">
        <ele>16</ele>
        <time>2010-01-01T00:02:56Z</time>
      </trkpt>
      <trkpt lat="43.46144" lon="-3.81571">
        <ele>18</ele>
        <time>2010-01-01T00:03:44Z</time>
      </trkpt>
      <trkpt lat="43.46129" lon="-3.81632">
        <ele>23</ele>
        <time>2010-01-01T00:04:03Z</time>
      </trkpt>
      <trkpt lat="43.46098" lon="-3.81737">
        <ele>27</ele>
        <time>2010-01-01T00:04:36Z</time>
      </trkpt>
      <trkpt lat="43.46084" lon="-3.8173">
        <ele>26</ele>
        <time>2010-01-01T00:04:42Z</time>
      </trkpt>
      <trkpt lat="43.46081" lon="-3.81741">
        <ele>26</ele>
        <time>2010-01-01T00:04:45Z</time>
      </trkpt>
      <trkpt lat="43.46081" lon="-3.81742">
        <ele>26</ele>
        <time>2010-01-01T00:04:45Z</time>
      </trkpt>
      <trkpt lat="43.46078" lon="-3.81754">
        <ele>26</ele>
        <time>2010-01-01T00:04:49Z</time>
      </trkpt>
      <trkpt lat="43.46068" lon="-3.81748">
        <ele>26</ele>
        <time>2010-01-01T00:04:53Z</time>
      </trkpt>
      <trkpt lat="43.46064" lon="-3.8176">
        <ele>27</ele>
        <time>2010-01-01T00:04:57Z</time>
      </trkpt>
      <trkpt lat="43.46027" lon="-3.81891">
        <ele>37</ele>
        <time>2010-01-01T00:05:38Z</time>
      </trkpt>
      <trkpt lat="43.45989" lon="-3.82035">
        <ele>37</ele>
        <time>2010-01-01T00:06:23Z</time>
      </trkpt>
      <trkpt lat="43.45989" lon="-3.82036">
        <ele>37</ele>
        <time>2010-01-01T00:06:23Z</time>
      </trkpt>
      <trkpt lat="43.45919" lon="-3.82302">
        <ele>40</ele>
        <time>2010-01-01T00:07:45Z</time>
      </trkpt>
      <trkpt lat="43.45857" lon="-3.82529">
        <ele>42</ele>
        <time>2010-01-01T00:08:56Z</time>
      </trkpt>
      <trkpt lat="43.45857" lon="-3.8253">
        <ele>42</ele>
        <time>2010-01-01T00:08:56Z</time>
      </trkpt>
      <trkpt lat="43.45845" lon="-3.82572">
        <ele>41</ele>
        <time>2010-01-01T00:09:09Z</time>
      </trkpt>
      <trkpt lat="43.45843" lon="-3.82585">
        <ele>41</ele>
        <time>2010-01-01T00:09:13Z</time>
      </trkpt>
      <trkpt lat="43.45846" lon="-3.82599">
        <ele>41</ele>
        <time>2010-01-01T00:09:17Z</time>
      </trkpt>
      <trkpt lat="43.45847" lon="-3.82608">
        <ele>41</ele>
        <time>2010-01-01T00:09:20Z</time>
      </trkpt>
      <trkpt lat="43.45857" lon="-3.82608">
        <ele>41</ele>
        <time>2010-01-01T00:09:24Z</time>
      </trkpt>
      <trkpt lat="43.45865" lon="-3.82615">
        <ele>40</ele>
        <time>2010-01-01T00:09:27Z</time>
      </trkpt>
      <trkpt lat="43.45869" lon="-3.82627">
        <ele>40</ele>
        <time>2010-01-01T00:09:31Z</time>
      </trkpt>
      <trkpt lat="43.45868" lon="-3.82641">
        <ele>39</ele>
        <time>2010-01-01T00:09:35Z</time>
      </trkpt>
      <trkpt lat="43.45863" lon="-3.82648">
        <ele>39</ele>
        <time>2010-01-01T00:09:38Z</time>
      </trkpt>
      <trkpt lat="43.45857" lon="-3.82653">
        <ele>39</ele>
        <time>2010-01-01T00:09:41Z</time>
      </trkpt>
      <trkpt lat="43.45841" lon="-3.82704">
        <ele>40</ele>
        <time>2010-01-01T00:09:57Z</time>
      </trkpt>
      <trkpt lat="43.45786" lon="-3.82928">
        <ele>31</ele>
        <time>2010-01-01T00:11:06Z</time>
      </trkpt>
      <trkpt lat="43.45734" lon="-3.83078">
        <ele>30</ele>
        <time>2010-01-01T00:11:54Z</time>
      </trkpt>
      <trkpt lat="43.4573" lon="-3.83099">
        <ele>29</ele>
        <time>2010-01-01T00:12:01Z</time>
      </trkpt>
      <trkpt lat="43.45731" lon="-3.8311">
        <ele>29</ele>
        <time>2010-01-01T00:12:04Z</time>
      </trkpt>
      <trkpt lat="43.45727" lon="-3.83122">
        <ele>28</ele>
        <time>2010-01-01T00:12:08Z</time>
      </trkpt>
      <trkpt lat="43.45721" lon="-3.83129">
        <ele>28</ele>
        <time>2010-01-01T00:12:11Z</time>
      </trkpt>
      <trkpt lat="43.45714" lon="-3.83131">
        <ele>28</ele>
        <time>2010-01-01T00:12:14Z</time>
      </trkpt>
      <trkpt lat="43.45693" lon="-3.83145">
        <ele>28</ele>
        <time>2010-01-01T00:12:23Z</time>
      </trkpt>
      <trkpt lat="43.45664" lon="-3.83178">
        <ele>27</ele>
        <time>2010-01-01T00:12:38Z</time>
      </trkpt>
      <trkpt lat="43.45652" lon="-3.83194">
        <ele>26</ele>
        <time>2010-01-01T00:12:45Z</time>
      </trkpt>
      <trkpt lat="43.4564" lon="-3.83219">
        <ele>26</ele>
        <time>2010-01-01T00:12:53Z</time>
      </trkpt>
      <trkpt lat="43.45643" lon="-3.83228">
        <ele>26</ele>
        <time>2010-01-01T00:12:56Z</time>
      </trkpt>
      <trkpt lat="43.45644" lon="-3.8324">
        <ele>27</ele>
        <time>2010-01-01T00:13:00Z</time>
      </trkpt>
      <trkpt lat="43.45642" lon="-3.83252">
        <ele>27</ele>
        <time>2010-01-01T00:13:03Z</time>
      </trkpt>
      <trkpt lat="43.45637" lon="-3.83265">
        <ele>27</ele>
        <time>2010-01-01T00:13:08Z</time>
      </trkpt>
      <trkpt lat="43.45629" lon="-3.83274">
        <ele>27</ele>
        <time>2010-01-01T00:13:12Z</time>
      </trkpt>
      <trkpt lat="43.4562" lon="-3.83279">
        <ele>26</ele>
        <time>2010-01-01T00:13:16Z</time>
      </trkpt>
      <trkpt lat="43.45615" lon="-3.83279">
        <ele>26</ele>
        <time>2010-01-01T00:13:18Z</time>
      </trkpt>
      <trkpt lat="43.45607" lon="-3.83276">
        <ele>25</ele>
        <time>2010-01-01T00:13:21Z</time>
      </trkpt>
      <trkpt lat="43.45592" lon="-3.83266">
        <ele>24</ele>
        <time>2010-01-01T00:13:28Z</time>
      </trkpt>
      <trkpt lat="43.45583" lon="-3.83264">
        <ele>24</ele>
        <time>2010-01-01T00:13:31Z</time>
      </trkpt>
      <trkpt lat="43.45562" lon="-3.83264">
        <ele>22</ele>
        <time>2010-01-01T00:13:40Z</time>
      </trkpt>
      <trkpt lat="43.45561" lon="-3.83264">
        <ele>22</ele>
        <time>2010-01-01T00:13:40Z</time>
      </trkpt>
      <trkpt lat="43.4555" lon="-3.83266">
        <ele>22</ele>
        <time>2010-01-01T00:13:45Z</time>
      </trkpt>
      <trkpt lat="43.45542" lon="-3.83271">
        <ele>22</ele>
        <time>2010-01-01T00:13:48Z</time>
      </trkpt>
      <trkpt lat="43.45534" lon="-3.83279">
        <ele>22</ele>
        <time>2010-01-01T00:13:52Z</time>
      </trkpt>
      <trkpt lat="43.45523" lon="-3.83301">
        <ele>22</ele>
        <time>2010-01-01T00:14:00Z</time>
      </trkpt>
      <trkpt lat="43.45436" lon="-3.83588">
        <ele>12</ele>
        <time>2010-01-01T00:15:30Z</time>
      </trkpt>
      <trkpt lat="43.45425" lon="-3.83629">
        <ele>11</ele>
        <time>2010-01-01T00:15:43Z</time>
      </trkpt>
      <trkpt lat="43.45419" lon="-3.83716">
        <ele>12</ele>
        <time>2010-01-01T00:16:08Z</time>
      </trkpt>
      <trkpt lat="43.45425" lon="-3.83878">
        <ele>11</ele>
        <time>2010-01-01T00:16:55Z</time>
      </trkpt>
      <trkpt lat="43.45431" lon="-3.83913">
        <ele>10</ele>
        <time>2010-01-01T00:17:06Z</time>
      </trkpt>
      <trkpt lat="43.45452" lon="-3.84007">
        <ele>4</ele>
        <time>2010-01-01T00:17:34Z</time>
      </trkpt>
      <trkpt lat="43.4547" lon="-3.84081">
        <ele>7</ele>
        <time>2010-01-01T00:17:57Z</time>
      </trkpt>
      <trkpt lat="43.45477" lon="-3.84128">
        <ele>8</ele>
        <time>2010-01-01T00:18:11Z</time>
      </trkpt>
      <trkpt lat="43.45475" lon="-3.84158">
        <ele>11</ele>
        <time>2010-01-01T00:18:20Z</time>
      </trkpt>
      <trkpt lat="43.45471" lon="-3.84183">
        <ele>12</ele>
        <time>2010-01-01T00:18:27Z</time>
      </trkpt>
      <trkpt lat="43.45449" lon="-3.84295">
        <ele>8</ele>
        <time>2010-01-01T00:19:01Z</time>
      </trkpt>
      <trkpt lat="43.45427" lon="-3.84402">
        <ele>13</ele>
        <time>2010-01-01T00:19:33Z</time>
      </trkpt>
      <trkpt lat="43.45384" lon="-3.8464">
        <ele>15</ele>
        <time>2010-01-01T00:20:45Z</time>
      </trkpt>
      <trkpt lat="43.45382" lon="-3.84661">
        <ele>16</ele>
        <time>2010-01-01T00:20:51Z</time>
      </trkpt>
      <trkpt lat="43.4537" lon="-3.84728">
        <ele>19</ele>
        <time>2010-01-01T00:21:11Z</time>
      </trkpt>
      <trkpt lat="43.4537" lon="-3.84729">
        <ele>19</ele>
        <time>2010-01-01T00:21:11Z</time>
      </trkpt>
      <trkpt lat="43.4531" lon="-3.85069">
        <ele>26</ele>
        <time>2010-01-01T00:22:53Z</time>
      </trkpt>
      <trkpt lat="43.45301" lon="-3.85145">
        <ele>34</ele>
        <time>2010-01-01T00:23:15Z</time>
      </trkpt>
      <trkpt lat="43.4529" lon="-3.85223">
        <ele>35</ele>
        <time>2010-01-01T00:23:38Z</time>
      </trkpt>
      <trkpt lat="43.45282" lon="-3.85262">
        <ele>34</ele>
        <time>2010-01-01T00:23:50Z</time>
      </trkpt>
      <trkpt lat="43.45269" lon="-3.85313">
        <ele>34</ele>
        <time>2010-01-01T00:24:06Z</time>
      </trkpt>
      <trkpt lat="43.45273" lon="-3.85327">
        <ele>32</ele>
        <time>2010-01-01T00:24:10Z</time>
      </trkpt>
      <trkpt lat="43.45272" lon="-3.85341">
        <ele>31</ele>
        <time>2010-01-01T00:24:14Z</time>
      </trkpt>
      <trkpt lat="43.4523" lon="-3.85479">
        <ele>29</ele>
        <time>2010-01-01T00:24:58Z</time>
      </trkpt>
      <trkpt lat="43.45151" lon="-3.85768">
        <ele>33</ele>
        <time>2010-01-01T00:26:27Z</time>
      </trkpt>
      <trkpt lat="43.45109" lon="-3.85881">
        <ele>29</ele>
        <time>2010-01-01T00:27:04Z</time>
      </trkpt>
      <trkpt lat="43.45107" lon="-3.85891">
        <ele>29</ele>
        <time>2010-01-01T00:27:07Z</time>
      </trkpt>
      <trkpt lat="43.45109" lon="-3.85919">
        <ele>29</ele>
        <time>2010-01-01T00:27:15Z</time>
      </trkpt>
      <trkpt lat="43.45108" lon="-3.85946">
        <ele>30</ele>
        <time>2010-01-01T00:27:23Z</time>
      </trkpt>
      <trkpt lat="43.45106" lon="-3.85955">
        <ele>30</ele>
        <time>2010-01-01T00:27:26Z</time>
      </trkpt>
      <trkpt lat="43.45096" lon="-3.85979">
        <ele>30</ele>
        <time>2010-01-01T00:27:34Z</time>
      </trkpt>
      <trkpt lat="43.45084" lon="-3.85995">
        <ele>31</ele>
        <time>2010-01-01T00:27:41Z</time>
      </trkpt>
      <trkpt lat="43.45057" lon="-3.86019">
        <ele>34</ele>
        <time>2010-01-01T00:27:54Z</time>
      </trkpt>
      <trkpt lat="43.44998" lon="-3.86173">
        <ele>33</ele>
        <time>2010-01-01T00:28:44Z</time>
      </trkpt>
      <trkpt lat="43.4498" lon="-3.86213">
        <ele>35</ele>
        <time>2010-01-01T00:28:58Z</time>
      </trkpt>
      <trkpt lat="43.44963" lon="-3.86248">
        <ele>38</ele>
        <time>2010-01-01T00:29:10Z</time>
      </trkpt>
      <trkpt lat="43.44899" lon="-3.86361">
        <ele>45</ele>
        <time>2010-01-01T00:29:52Z</time>
      </trkpt>
      <trkpt lat="43.44897" lon="-3.86374">
        <ele>46</ele>
        <time>2010-01-01T00:29:56Z</time>
      </trkpt>
      <trkpt lat="43.44896" lon="-3.86393">
        <ele>46</ele>
        <time>2010-01-01T00:30:01Z</time>
      </trkpt>
      <trkpt lat="43.44895" lon="-3.86402">
        <ele>47</ele>
        <time>2010-01-01T00:30:04Z</time>
      </trkpt>
      <trkpt lat="43.44886" lon="-3.86415">
        <ele>47</ele>
        <time>2010-01-01T00:30:09Z</time>
      </trkpt>
      <trkpt lat="43.44877" lon="-3.86417">
        <ele>47</ele>
        <time>2010-01-01T00:30:13Z</time>
      </trkpt>
      <trkpt lat="43.44867" lon="-3.86414">
        <ele>47</ele>
        <time>2010-01-01T00:30:17Z</time>
      </trkpt>
      <trkpt lat="43.44877" lon="-3.86417">
        <ele>47</ele>
        <time>2010-01-01T00:30:21Z</time>
      </trkpt>
      <trkpt lat="43.44881" lon="-3.86429">
        <ele>46</ele>
        <time>2010-01-01T00:30:25Z</time>
      </trkpt>
      <trkpt lat="43.4489" lon="-3.86439">
        <ele>46</ele>
        <time>2010-01-01T00:30:29Z</time>
      </trkpt>
      <trkpt lat="43.44915" lon="-3.86463">
        <ele>45</ele>
        <time>2010-01-01T00:30:42Z</time>
      </trkpt>
      <trkpt lat="43.44935" lon="-3.86477">
        <ele>47</ele>
        <time>2010-01-01T00:30:51Z</time>
      </trkpt>
      <trkpt lat="43.44995" lon="-3.86506">
        <ele>47</ele>
        <time>2010-01-01T00:31:16Z</time>
      </trkpt>
      <trkpt lat="43.45022" lon="-3.86523">
        <ele>46</ele>
        <time>2010-01-01T00:31:28Z</time>
      </trkpt>
      <trkpt lat="43.45024" lon="-3.86524">
        <ele>46</ele>
        <time>2010-01-01T00:31:29Z</time>
      </trkpt>
      <trkpt lat="43.44989" lon="-3.86607">
        <ele>44</ele>
        <time>2010-01-01T00:31:57Z</time>
      </trkpt>
      <trkpt lat="43.44881" lon="-3.86893">
        <ele>43</ele>
        <time>2010-01-01T00:33:30Z</time>
      </trkpt>
      <trkpt lat="43.44897" lon="-3.86908">
        <ele>45</ele>
        <time>2010-01-01T00:33:38Z</time>
      </trkpt>
      <trkpt lat="43.44901" lon="-3.86934">
        <ele>46</ele>
        <time>2010-01-01T00:33:46Z</time>
      </trkpt>
      <trkpt lat="43.44898" lon="-3.86955">
        <ele>47</ele>
        <time>2010-01-01T00:33:52Z</time>
      </trkpt>
      <trkpt lat="43.44889" lon="-3.86995">
        <ele>48</ele>
        <time>2010-01-01T00:34:04Z</time>
      </trkpt>
      <trkpt lat="43.44881" lon="-3.87022">
        <ele>49</ele>
        <time>2010-01-01T00:34:13Z</time>
      </trkpt>
      <trkpt lat="43.44876" lon="-3.87045">
        <ele>49</ele>
        <time>2010-01-01T00:34:20Z</time>
      </trkpt>
      <trkpt lat="43.44875" lon="-3.87059">
        <ele>50</ele>
        <time>2010-01-01T00:34:24Z</time>
      </trkpt>
      <trkpt lat="43.4488" lon="-3.87099">
        <ele>52</ele>
        <time>2010-01-01T00:34:35Z</time>
      </trkpt>
      <trkpt lat="43.4488" lon="-3.87124">
        <ele>54</ele>
        <time>2010-01-01T00:34:43Z</time>
      </trkpt>
      <trkpt lat="43.44875" lon="-3.87169">
        <ele>56</ele>
        <time>2010-01-01T00:34:56Z</time>
      </trkpt>
      <trkpt lat="43.44865" lon="-3.87217">
        <ele>56</ele>
        <time>2010-01-01T00:35:10Z</time>
      </trkpt>
      <trkpt lat="43.44862" lon="-3.87236">
        <ele>56</ele>
        <time>2010-01-01T00:35:16Z</time>
      </trkpt>
      <trkpt lat="43.44864" lon="-3.87245">
        <ele>56</ele>
        <time>2010-01-01T00:35:19Z</time>
      </trkpt>
      <trkpt lat="43.44878" lon="-3.87271">
        <ele>57</ele>
        <time>2010-01-01T00:35:28Z</time>
      </trkpt>
      <trkpt lat="43.44869" lon="-3.87388">
        <ele>57</ele>
        <time>2010-01-01T00:36:02Z</time>
      </trkpt>
      <trkpt lat="43.44832" lon="-3.87518">
        <ele>49</ele>
        <time>2010-01-01T00:36:43Z</time>
      </trkpt>
      <trkpt lat="43.44828" lon="-3.87524">
        <ele>48</ele>
        <time>2010-01-01T00:36:45Z</time>
      </trkpt>
      <trkpt lat="43.44813" lon="-3.87526">
        <ele>47</ele>
        <time>2010-01-01T00:36:51Z</time>
      </trkpt>
      <trkpt lat="43.44778" lon="-3.87537">
        <ele>42</ele>
        <time>2010-01-01T00:37:06Z</time>
      </trkpt>
      <trkpt lat="43.44764" lon="-3.87549">
        <ele>39</ele>
        <time>2010-01-01T00:37:12Z</time>
      </trkpt>
      <trkpt lat="43.44751" lon="-3.87572">
        <ele>37</ele>
        <time>2010-01-01T00:37:21Z</time>
      </trkpt>
      <trkpt lat="43.44743" lon="-3.87595">
        <ele>37</ele>
        <time>2010-01-01T00:37:28Z</time>
      </trkpt>
      <trkpt lat="43.44736" lon="-3.87602">
        <ele>36</ele>
        <time>2010-01-01T00:37:32Z</time>
      </trkpt>
      <trkpt lat="43.44736" lon="-3.87649">
        <ele>36</ele>
        <time>2010-01-01T00:37:45Z</time>
      </trkpt>
      <trkpt lat="43.44737" lon="-3.87661">
        <ele>36</ele>
        <time>2010-01-01T00:37:49Z</time>
      </trkpt>
      <trkpt lat="43.44742" lon="-3.87672">
        <ele>37</ele>
        <time>2010-01-01T00:37:53Z</time>
      </trkpt>
      <trkpt lat="43.44744" lon="-3.87683">
        <ele>37</ele>
        <time>2010-01-01T00:37:56Z</time>
      </trkpt>
      <trkpt lat="43.44742" lon="-3.87701">
        <ele>36</ele>
        <time>2010-01-01T00:38:01Z</time>
      </trkpt>
      <trkpt lat="43.44742" lon="-3.87732">
        <ele>35</ele>
        <time>2010-01-01T00:38:10Z</time>
      </trkpt>
      <trkpt lat="43.44745" lon="-3.87747">
        <ele>35</ele>
        <time>2010-01-01T00:38:15Z</time>
      </trkpt>
      <trkpt lat="43.44754" lon="-3.87779">
        <ele>36</ele>
        <time>2010-01-01T00:38:25Z</time>
      </trkpt>
      <trkpt lat="43.44763" lon="-3.87798">
        <ele>36</ele>
        <time>2010-01-01T00:38:31Z</time>
      </trkpt>
      <trkpt lat="43.44767" lon="-3.87812">
        <ele>37</ele>
        <time>2010-01-01T00:38:36Z</time>
      </trkpt>
      <trkpt lat="43.44776" lon="-3.87866">
        <ele>35</ele>
        <time>2010-01-01T00:38:52Z</time>
      </trkpt>
      <trkpt lat="43.44797" lon="-3.8794">
        <ele>33</ele>
        <time>2010-01-01T00:39:15Z</time>
      </trkpt>
      <trkpt lat="43.44804" lon="-3.87987">
        <ele>32</ele>
        <time>2010-01-01T00:39:29Z</time>
      </trkpt>
      <trkpt lat="43.44805" lon="-3.88018">
        <ele>31</ele>
        <time>2010-01-01T00:39:38Z</time>
      </trkpt>
      <trkpt lat="43.44803" lon="-3.88038">
        <ele>31</ele>
        <time>2010-01-01T00:39:44Z</time>
      </trkpt>
      <trkpt lat="43.44804" lon="-3.88038">
        <ele>31</ele>
        <time>2010-01-01T00:39:44Z</time>
      </trkpt>
      <trkpt lat="43.44776" lon="-3.88028">
        <ele>29</ele>
        <time>2010-01-01T00:39:56Z</time>
      </trkpt>
      <trkpt lat="43.44751" lon="-3.88014">
        <ele>28</ele>
        <time>2010-01-01T00:40:07Z</time>
      </trkpt>
      <trkpt lat="43.44736" lon="-3.88009">
        <ele>28</ele>
        <time>2010-01-01T00:40:13Z</time>
      </trkpt>
      <trkpt lat="43.44725" lon="-3.88017">
        <ele>28</ele>
        <time>2010-01-01T00:40:18Z</time>
      </trkpt>
      <trkpt lat="43.44713" lon="-3.88032">
        <ele>27</ele>
        <time>2010-01-01T00:40:24Z</time>
      </trkpt>
      <trkpt lat="43.44711" lon="-3.88049">
        <ele>27</ele>
        <time>2010-01-01T00:40:29Z</time>
      </trkpt>
      <trkpt lat="43.4471" lon="-3.88233">
        <ele>25</ele>
        <time>2010-01-01T00:41:23Z</time>
      </trkpt>
      <trkpt lat="43.44713" lon="-3.88266">
        <ele>27</ele>
        <time>2010-01-01T00:41:32Z</time>
      </trkpt>
      <trkpt lat="43.44748" lon="-3.88291">
        <ele>27</ele>
        <time>2010-01-01T00:41:48Z</time>
      </trkpt>
      <trkpt lat="43.44752" lon="-3.88301">
        <ele>27</ele>
        <time>2010-01-01T00:41:51Z</time>
      </trkpt>
      <trkpt lat="43.44754" lon="-3.88327">
        <ele>28</ele>
        <time>2010-01-01T00:41:59Z</time>
      </trkpt>
      <trkpt lat="43.44752" lon="-3.8834">
        <ele>29</ele>
        <time>2010-01-01T00:42:03Z</time>
      </trkpt>
      <trkpt lat="43.44753" lon="-3.88353">
        <ele>29</ele>
        <time>2010-01-01T00:42:07Z</time>
      </trkpt>
      <trkpt lat="43.44758" lon="-3.88367">
        <ele>29</ele>
        <time>2010-01-01T00:42:11Z</time>
      </trkpt>
      <trkpt lat="43.44765" lon="-3.88379">
        <ele>28</ele>
        <time>2010-01-01T00:42:16Z</time>
      </trkpt>
      <trkpt lat="43.44791" lon="-3.8841">
        <ele>25</ele>
        <time>2010-01-01T00:42:29Z</time>
      </trkpt>
      <trkpt lat="43.44812" lon="-3.88454">
        <ele>24</ele>
        <time>2010-01-01T00:42:45Z</time>
      </trkpt>
      <trkpt lat="43.44788" lon="-3.88674">
        <ele>28</ele>
        <time>2010-01-01T00:43:49Z</time>
      </trkpt>
      <trkpt lat="43.44783" lon="-3.8871">
        <ele>28</ele>
        <time>2010-01-01T00:44:00Z</time>
      </trkpt>
      <trkpt lat="43.44775" lon="-3.88758">
        <ele>30</ele>
        <time>2010-01-01T00:44:14Z</time>
      </trkpt>
      <trkpt lat="43.44762" lon="-3.88862">
        <ele>31</ele>
        <time>2010-01-01T00:44:45Z</time>
      </trkpt>
      <trkpt lat="43.44764" lon="-3.88872">
        <ele>31</ele>
        <time>2010-01-01T00:44:48Z</time>
      </trkpt>
      <trkpt lat="43.44768" lon="-3.88876">
        <ele>31</ele>
        <time>2010-01-01T00:44:50Z</time>
      </trkpt>
      <trkpt lat="43.44794" lon="-3.88878">
        <ele>31</ele>
        <time>2010-01-01T00:45:01Z</time>
      </trkpt>
      <trkpt lat="43.44805" lon="-3.88881">
        <ele>31</ele>
        <time>2010-01-01T00:45:05Z</time>
      </trkpt>
      <trkpt lat="43.44808" lon="-3.88889">
        <ele>32</ele>
        <time>2010-01-01T00:45:08Z</time>
      </trkpt>
      <trkpt lat="43.44806" lon="-3.88897">
        <ele>32</ele>
        <time>2010-01-01T00:45:10Z</time>
      </trkpt>
      <trkpt lat="43.44708" lon="-3.89124">
        <ele>35</ele>
        <time>2010-01-01T00:46:27Z</time>
      </trkpt>
      <trkpt lat="43.44696" lon="-3.89131">
        <ele>35</ele>
        <time>2010-01-01T00:46:32Z</time>
      </trkpt>
      <trkpt lat="43.44685" lon="-3.89146">
        <ele>35</ele>
        <time>2010-01-01T00:46:38Z</time>
      </trkpt>
      <trkpt lat="43.44668" lon="-3.89172">
        <ele>36</ele>
        <time>2010-01-01T00:46:48Z</time>
      </trkpt>
      <trkpt lat="43.44662" lon="-3.89198">
        <ele>36</ele>
        <time>2010-01-01T00:46:56Z</time>
      </trkpt>
      <trkpt lat="43.44638" lon="-3.89277">
        <ele>40</ele>
        <time>2010-01-01T00:47:21Z</time>
      </trkpt>
      <trkpt lat="43.44641" lon="-3.89282">
        <ele>41</ele>
        <time>2010-01-01T00:47:23Z</time>
      </trkpt>
      <trkpt lat="43.44664" lon="-3.89307">
        <ele>41</ele>
        <time>2010-01-01T00:47:35Z</time>
      </trkpt>
      <trkpt lat="43.44677" lon="-3.89316">
        <ele>40</ele>
        <time>2010-01-01T00:47:41Z</time>
      </trkpt>
      <trkpt lat="43.44666" lon="-3.89343">
        <ele>41</ele>
        <time>2010-01-01T00:47:50Z</time>
      </trkpt>
      <trkpt lat="43.44664" lon="-3.89361">
        <ele>41</ele>
        <time>2010-01-01T00:47:55Z</time>
      </trkpt>
      <trkpt lat="43.44573" lon="-3.89591">
        <ele>44</ele>
        <time>2010-01-01T00:49:11Z</time>
      </trkpt>
      <trkpt lat="43.44566" lon="-3.89604">
        <ele>44</ele>
        <time>2010-01-01T00:49:16Z</time>
      </trkpt>
      <trkpt lat="43.44557" lon="-3.89613">
        <ele>45</ele>
        <time>2010-01-01T00:49:20Z</time>
      </trkpt>
      <trkpt lat="43.44533" lon="-3.89623">
        <ele>47</ele>
        <time>2010-01-01T00:49:30Z</time>
      </trkpt>
      <trkpt lat="43.44521" lon="-3.89635">
        <ele>47</ele>
        <time>2010-01-01T00:49:36Z</time>
      </trkpt>
      <trkpt lat="43.44506" lon="-3.89679">
        <ele>48</ele>
        <time>2010-01-01T00:49:50Z</time>
      </trkpt>
      <trkpt lat="43.4448" lon="-3.8974">
        <ele>48</ele>
        <time>2010-01-01T00:50:11Z</time>
      </trkpt>
      <trkpt lat="43.44473" lon="-3.89774">
        <ele>47</ele>
        <time>2010-01-01T00:50:21Z</time>
      </trkpt>
      <trkpt lat="43.44461" lon="-3.89815">
        <ele>48</ele>
        <time>2010-01-01T00:50:34Z</time>
      </trkpt>
      <trkpt lat="43.44424" lon="-3.89899">
        <ele>47</ele>
        <time>2010-01-01T00:51:03Z</time>
      </trkpt>
      <trkpt lat="43.4442" lon="-3.89911">
        <ele>47</ele>
        <time>2010-01-01T00:51:06Z</time>
      </trkpt>
      <trkpt lat="43.44413" lon="-3.89952">
        <ele>47</ele>
        <time>2010-01-01T00:51:19Z</time>
      </trkpt>
      <trkpt lat="43.44408" lon="-3.89966">
        <ele>47</ele>
        <time>2010-01-01T00:51:23Z</time>
      </trkpt>
      <trkpt lat="43.44408" lon="-3.89967">
        <ele>47</ele>
        <time>2010-01-01T00:51:23Z</time>
      </trkpt>
      <trkpt lat="43.44406" lon="-3.8997">
        <ele>47</ele>
        <time>2010-01-01T00:51:25Z</time>
      </trkpt>
      <trkpt lat="43.44368" lon="-3.90004">
        <ele>49</ele>
        <time>2010-01-01T00:51:43Z</time>
      </trkpt>
      <trkpt lat="43.44353" lon="-3.90026">
        <ele>50</ele>
        <time>2010-01-01T00:51:52Z</time>
      </trkpt>
      <trkpt lat="43.44299" lon="-3.90173">
        <ele>48</ele>
        <time>2010-01-01T00:52:39Z</time>
      </trkpt>
      <trkpt lat="43.44277" lon="-3.90219">
        <ele>46</ele>
        <time>2010-01-01T00:52:55Z</time>
      </trkpt>
      <trkpt lat="43.44272" lon="-3.90236">
        <ele>46</ele>
        <time>2010-01-01T00:53:01Z</time>
      </trkpt>
      <trkpt lat="43.4427" lon="-3.90258">
        <ele>45</ele>
        <time>2010-01-01T00:53:07Z</time>
      </trkpt>
      <trkpt lat="43.4427" lon="-3.9029">
        <ele>46</ele>
        <time>2010-01-01T00:53:17Z</time>
      </trkpt>
      <trkpt lat="43.44282" lon="-3.90478">
        <ele>43</ele>
        <time>2010-01-01T00:54:11Z</time>
      </trkpt>
      <trkpt lat="43.44299" lon="-3.90593">
        <ele>43</ele>
        <time>2010-01-01T00:54:45Z</time>
      </trkpt>
      <trkpt lat="43.44307" lon="-3.90635">
        <ele>44</ele>
        <time>2010-01-01T00:54:58Z</time>
      </trkpt>
      <trkpt lat="43.44308" lon="-3.9065">
        <ele>44</ele>
        <time>2010-01-01T00:55:02Z</time>
      </trkpt>
      <trkpt lat="43.44293" lon="-3.9071">
        <ele>44</ele>
        <time>2010-01-01T00:55:21Z</time>
      </trkpt>
      <trkpt lat="43.44292" lon="-3.90752">
        <ele>46</ele>
        <time>2010-01-01T00:55:33Z</time>
      </trkpt>
      <trkpt lat="43.44276" lon="-3.90759">
        <ele>48</ele>
        <time>2010-01-01T00:55:40Z</time>
      </trkpt>
      <trkpt lat="43.44262" lon="-3.90778">
        <ele>49</ele>
        <time>2010-01-01T00:55:48Z</time>
      </trkpt>
      <trkpt lat="43.44251" lon="-3.90789">
        <ele>49</ele>
        <time>2010-01-01T00:55:53Z</time>
      </trkpt>
      <trkpt lat="43.44237" lon="-3.90798">
        <ele>51</ele>
        <time>2010-01-01T00:55:59Z</time>
      </trkpt>
      <trkpt lat="43.44207" lon="-3.90804">
        <ele>52</ele>
        <time>2010-01-01T00:56:11Z</time>
      </trkpt>
      <trkpt lat="43.442" lon="-3.90812">
        <ele>52</ele>
        <time>2010-01-01T00:56:15Z</time>
      </trkpt>
      <trkpt lat="43.44193" lon="-3.90823">
        <ele>52</ele>
        <time>2010-01-01T00:56:19Z</time>
      </trkpt>
      <trkpt lat="43.44179" lon="-3.90857">
        <ele>53</ele>
        <time>2010-01-01T00:56:31Z</time>
      </trkpt>
      <trkpt lat="43.44164" lon="-3.9088">
        <ele>54</ele>
        <time>2010-01-01T00:56:40Z</time>
      </trkpt>
      <trkpt lat="43.44157" lon="-3.90888">
        <ele>54</ele>
        <time>2010-01-01T00:56:43Z</time>
      </trkpt>
      <trkpt lat="43.44148" lon="-3.90894">
        <ele>54</ele>
        <time>2010-01-01T00:56:47Z</time>
      </trkpt>
      <trkpt lat="43.44136" lon="-3.90895">
        <ele>55</ele>
        <time>2010-01-01T00:56:52Z</time>
      </trkpt>
      <trkpt lat="43.44096" lon="-3.90883">
        <ele>54</ele>
        <time>2010-01-01T00:57:09Z</time>
      </trkpt>
      <trkpt lat="43.44085" lon="-3.90912">
        <ele>55</ele>
        <time>2010-01-01T00:57:18Z</time>
      </trkpt>
      <trkpt lat="43.44077" lon="-3.90963">
        <ele>56</ele>
        <time>2010-01-01T00:57:33Z</time>
      </trkpt>
      <trkpt lat="43.44075" lon="-3.90983">
        <ele>55</ele>
        <time>2010-01-01T00:57:39Z</time>
      </trkpt>
      <trkpt lat="43.44077" lon="-3.91021">
        <ele>54</ele>
        <time>2010-01-01T00:57:50Z</time>
      </trkpt>
      <trkpt lat="43.44075" lon="-3.91045">
        <ele>55</ele>
        <time>2010-01-01T00:57:57Z</time>
      </trkpt>
      <trkpt lat="43.44072" lon="-3.91059">
        <ele>55</ele>
        <time>2010-01-01T00:58:01Z</time>
      </trkpt>
      <trkpt lat="43.44061" lon="-3.91075">
        <ele>57</ele>
        <time>2010-01-01T00:58:08Z</time>
      </trkpt>
      <trkpt lat="43.4404" lon="-3.911">
        <ele>59</ele>
        <time>2010-01-01T00:58:19Z</time>
      </trkpt>
      <trkpt lat="43.44027" lon="-3.91118">
        <ele>60</ele>
        <time>2010-01-01T00:58:26Z</time>
      </trkpt>
      <trkpt lat="43.44013" lon="-3.91145">
        <ele>60</ele>
        <time>2010-01-01T00:58:36Z</time>
      </trkpt>
      <trkpt lat="43.43994" lon="-3.91191">
        <ele>58</ele>
        <time>2010-01-01T00:58:51Z</time>
      </trkpt>
      <trkpt lat="43.4398" lon="-3.91249">
        <ele>59</ele>
        <time>2010-01-01T00:59:09Z</time>
      </trkpt>
      <trkpt lat="43.43957" lon="-3.91288">
        <ele>60</ele>
        <time>2010-01-01T00:59:24Z</time>
      </trkpt>
      <trkpt lat="43.43939" lon="-3.9136">
        <ele>61</ele>
        <time>2010-01-01T00:59:46Z</time>
      </trkpt>
      <trkpt lat="43.43909" lon="-3.91445">
        <ele>62</ele>
        <time>2010-01-01T01:00:13Z</time>
      </trkpt>
      <trkpt lat="43.43908" lon="-3.91457">
        <ele>62</ele>
        <time>2010-01-01T01:00:17Z</time>
      </trkpt>
      <trkpt lat="43.43914" lon="-3.91492">
        <ele>65</ele>
        <time>2010-01-01T01:00:27Z</time>
      </trkpt>
      <trkpt lat="43.43909" lon="-3.91544">
        <ele>66</ele>
        <time>2010-01-01T01:00:43Z</time>
      </trkpt>
      <trkpt lat="43.43905" lon="-3.91558">
        <ele>66</ele>
        <time>2010-01-01T01:00:47Z</time>
      </trkpt>
      <trkpt lat="43.43876" lon="-3.91608">
        <ele>65</ele>
        <time>2010-01-01T01:01:06Z</time>
      </trkpt>
      <trkpt lat="43.43851" lon="-3.91662">
        <ele>64</ele>
        <time>2010-01-01T01:01:24Z</time>
      </trkpt>
      <trkpt lat="43.43842" lon="-3.91678">
        <ele>65</ele>
        <time>2010-01-01T01:01:30Z</time>
      </trkpt>
      <trkpt lat="43.4383" lon="-3.91685">
        <ele>65</ele>
        <time>2010-01-01T01:01:35Z</time>
      </trkpt>
      <trkpt lat="43.43814" lon="-3.91701">
        <ele>66</ele>
        <time>2010-01-01T01:01:43Z</time>
      </trkpt>
      <trkpt lat="43.437" lon="-3.91834">
        <ele>64</ele>
        <time>2010-01-01T01:02:43Z</time>
      </trkpt>
      <trkpt lat="43.43678" lon="-3.91863">
        <ele>63</ele>
        <time>2010-01-01T01:02:55Z</time>
      </trkpt>
      <trkpt lat="43.43576" lon="-3.91885">
        <ele>61</ele>
        <time>2010-01-01T01:03:36Z</time>
      </trkpt>
      <trkpt lat="43.43569" lon="-3.91891">
        <ele>61</ele>
        <time>2010-01-01T01:03:40Z</time>
      </trkpt>
      <trkpt lat="43.43479" lon="-3.91823">
        <ele>59</ele>
        <time>2010-01-01T01:04:21Z</time>
      </trkpt>
      <trkpt lat="43.43454" lon="-3.91806">
        <ele>60</ele>
        <time>2010-01-01T01:04:32Z</time>
      </trkpt>
      <trkpt lat="43.4344" lon="-3.918">
        <ele>61</ele>
        <time>2010-01-01T01:04:38Z</time>
      </trkpt>
      <trkpt lat="43.43413" lon="-3.91794">
        <ele>61</ele>
        <time>2010-01-01T01:04:49Z</time>
      </trkpt>
      <trkpt lat="43.43394" lon="-3.91804">
        <ele>60</ele>
        <time>2010-01-01T01:04:57Z</time>
      </trkpt>
      <trkpt lat="43.43392" lon="-3.91815">
        <ele>60</ele>
        <time>2010-01-01T01:05:00Z</time>
      </trkpt>
      <trkpt lat="43.43382" lon="-3.91827">
        <ele>60</ele>
        <time>2010-01-01T01:05:06Z</time>
      </trkpt>
      <trkpt lat="43.43375" lon="-3.91831">
        <ele>60</ele>
        <time>2010-01-01T01:05:09Z</time>
      </trkpt>
      <trkpt lat="43.43361" lon="-3.91861">
        <ele>59</ele>
        <time>2010-01-01T01:05:19Z</time>
      </trkpt>
      <trkpt lat="43.43339" lon="-3.92014">
        <ele>60</ele>
        <time>2010-01-01T01:06:04Z</time>
      </trkpt>
      <trkpt lat="43.43331" lon="-3.92047">
        <ele>60</ele>
        <time>2010-01-01T01:06:14Z</time>
      </trkpt>
      <trkpt lat="43.433" lon="-3.9215">
        <ele>60</ele>
        <time>2010-01-01T01:06:47Z</time>
      </trkpt>
      <trkpt lat="43.43202" lon="-3.92456">
        <ele>63</ele>
        <time>2010-01-01T01:08:24Z</time>
      </trkpt>
      <trkpt lat="43.43186" lon="-3.92552">
        <ele>61</ele>
        <time>2010-01-01T01:08:53Z</time>
      </trkpt>
      <trkpt lat="43.43153" lon="-3.92785">
        <ele>52</ele>
        <time>2010-01-01T01:10:02Z</time>
      </trkpt>
      <trkpt lat="43.43145" lon="-3.92829">
        <ele>49</ele>
        <time>2010-01-01T01:10:15Z</time>
      </trkpt>
      <trkpt lat="43.43119" lon="-3.92914">
        <ele>53</ele>
        <time>2010-01-01T01:10:42Z</time>
      </trkpt>
      <trkpt lat="43.43128" lon="-3.9292">
        <ele>51</ele>
        <time>2010-01-01T01:10:46Z</time>
      </trkpt>
      <trkpt lat="43.43135" lon="-3.92927">
        <ele>50</ele>
        <time>2010-01-01T01:10:49Z</time>
      </trkpt>
      <trkpt lat="43.43141" lon="-3.9294">
        <ele>48</ele>
        <time>2010-01-01T01:10:54Z</time>
      </trkpt>
      <trkpt lat="43.43146" lon="-3.92955">
        <ele>48</ele>
        <time>2010-01-01T01:10:58Z</time>
      </trkpt>
      <trkpt lat="43.43149" lon="-3.9297">
        <ele>48</ele>
        <time>2010-01-01T01:11:03Z</time>
      </trkpt>
      <trkpt lat="43.43153" lon="-3.93016">
        <ele>47</ele>
        <time>2010-01-01T01:11:16Z</time>
      </trkpt>
      <trkpt lat="43.43157" lon="-3.93039">
        <ele>45</ele>
        <time>2010-01-01T01:11:23Z</time>
      </trkpt>
      <trkpt lat="43.43161" lon="-3.93054">
        <ele>44</ele>
        <time>2010-01-01T01:11:28Z</time>
      </trkpt>
      <trkpt lat="43.43181" lon="-3.93097">
        <ele>38</ele>
        <time>2010-01-01T01:11:43Z</time>
      </trkpt>
      <trkpt lat="43.43184" lon="-3.93115">
        <ele>37</ele>
        <time>2010-01-01T01:11:48Z</time>
      </trkpt>
      <trkpt lat="43.43181" lon="-3.93124">
        <ele>37</ele>
        <time>2010-01-01T01:11:51Z</time>
      </trkpt>
      <trkpt lat="43.43167" lon="-3.93147">
        <ele>36</ele>
        <time>2010-01-01T01:12:00Z</time>
      </trkpt>
      <trkpt lat="43.43163" lon="-3.93158">
        <ele>35</ele>
        <time>2010-01-01T01:12:03Z</time>
      </trkpt>
      <trkpt lat="43.43166" lon="-3.93166">
        <ele>35</ele>
        <time>2010-01-01T01:12:06Z</time>
      </trkpt>
      <trkpt lat="43.4318" lon="-3.93181">
        <ele>35</ele>
        <time>2010-01-01T01:12:13Z</time>
      </trkpt>
      <trkpt lat="43.43185" lon="-3.9319">
        <ele>35</ele>
        <time>2010-01-01T01:12:16Z</time>
      </trkpt>
      <trkpt lat="43.43182" lon="-3.93234">
        <ele>37</ele>
        <time>2010-01-01T01:12:29Z</time>
      </trkpt>
      <trkpt lat="43.43185" lon="-3.93243">
        <ele>38</ele>
        <time>2010-01-01T01:12:32Z</time>
      </trkpt>
      <trkpt lat="43.43201" lon="-3.93262">
        <ele>40</ele>
        <time>2010-01-01T01:12:41Z</time>
      </trkpt>
      <trkpt lat="43.43229" lon="-3.93311">
        <ele>41</ele>
        <time>2010-01-01T01:12:59Z</time>
      </trkpt>
      <trkpt lat="43.43235" lon="-3.93333">
        <ele>40</ele>
        <time>2010-01-01T01:13:06Z</time>
      </trkpt>
      <trkpt lat="43.43249" lon="-3.93363">
        <ele>39</ele>
        <time>2010-01-01T01:13:16Z</time>
      </trkpt>
      <trkpt lat="43.43254" lon="-3.93397">
        <ele>40</ele>
        <time>2010-01-01T01:13:26Z</time>
      </trkpt>
      <trkpt lat="43.43262" lon="-3.93431">
        <ele>40</ele>
        <time>2010-01-01T01:13:36Z</time>
      </trkpt>
      <trkpt lat="43.43267" lon="-3.93442">
        <ele>39</ele>
        <time>2010-01-01T01:13:40Z</time>
      </trkpt>
      <trkpt lat="43.43282" lon="-3.93457">
        <ele>36</ele>
        <time>2010-01-01T01:13:48Z</time>
      </trkpt>
      <trkpt lat="43.43287" lon="-3.93465">
        <ele>35</ele>
        <time>2010-01-01T01:13:51Z</time>
      </trkpt>
      <trkpt lat="43.43299" lon="-3.93528">
        <ele>29</ele>
        <time>2010-01-01T01:14:10Z</time>
      </trkpt>
      <trkpt lat="43.43299" lon="-3.93544">
        <ele>29</ele>
        <time>2010-01-01T01:14:14Z</time>
      </trkpt>
      <trkpt lat="43.43286" lon="-3.93683">
        <ele>28</ele>
        <time>2010-01-01T01:14:55Z</time>
      </trkpt>
      <trkpt lat="43.43273" lon="-3.93713">
        <ele>27</ele>
        <time>2010-01-01T01:15:05Z</time>
      </trkpt>
      <trkpt lat="43.43266" lon="-3.93732">
        <ele>26</ele>
        <time>2010-01-01T01:15:11Z</time>
      </trkpt>
      <trkpt lat="43.43261" lon="-3.93751">
        <ele>26</ele>
        <time>2010-01-01T01:15:17Z</time>
      </trkpt>
      <trkpt lat="43.43263" lon="-3.93793">
        <ele>25</ele>
        <time>2010-01-01T01:15:29Z</time>
      </trkpt>
      <trkpt lat="43.43257" lon="-3.93837">
        <ele>26</ele>
        <time>2010-01-01T01:15:42Z</time>
      </trkpt>
      <trkpt lat="43.43255" lon="-3.93877">
        <ele>22</ele>
        <time>2010-01-01T01:15:54Z</time>
      </trkpt>
      <trkpt lat="43.43254" lon="-3.93952">
        <ele>18</ele>
        <time>2010-01-01T01:16:16Z</time>
      </trkpt>
      <trkpt lat="43.43252" lon="-3.93988">
        <ele>17</ele>
        <time>2010-01-01T01:16:26Z</time>
      </trkpt>
      <trkpt lat="43.43249" lon="-3.93998">
        <ele>18</ele>
        <time>2010-01-01T01:16:30Z</time>
      </trkpt>
      <trkpt lat="43.43221" lon="-3.9403">
        <ele>16</ele>
        <time>2010-01-01T01:16:44Z</time>
      </trkpt>
      <trkpt lat="43.43214" lon="-3.94043">
        <ele>16</ele>
        <time>2010-01-01T01:16:49Z</time>
      </trkpt>
      <trkpt lat="43.43212" lon="-3.94059">
        <ele>16</ele>
        <time>2010-01-01T01:16:54Z</time>
      </trkpt>
      <trkpt lat="43.43213" lon="-3.9407">
        <ele>16</ele>
        <time>2010-01-01T01:16:57Z</time>
      </trkpt>
      <trkpt lat="43.43222" lon="-3.94091">
        <ele>16</ele>
        <time>2010-01-01T01:17:04Z</time>
      </trkpt>
      <trkpt lat="43.43232" lon="-3.94151">
        <ele>16</ele>
        <time>2010-01-01T01:17:22Z</time>
      </trkpt>
      <trkpt lat="43.43234" lon="-3.94178">
        <ele>15</ele>
        <time>2010-01-01T01:17:30Z</time>
      </trkpt>
      <trkpt lat="43.43235" lon="-3.94243">
        <ele>12</ele>
        <time>2010-01-01T01:17:49Z</time>
      </trkpt>
      <trkpt lat="43.43234" lon="-3.9429">
        <ele>13</ele>
        <time>2010-01-01T01:18:02Z</time>
      </trkpt>
      <trkpt lat="43.43232" lon="-3.94313">
        <ele>13</ele>
        <time>2010-01-01T01:18:09Z</time>
      </trkpt>
      <trkpt lat="43.43217" lon="-3.94412">
        <ele>9</ele>
        <time>2010-01-01T01:18:38Z</time>
      </trkpt>
      <trkpt lat="43.43212" lon="-3.94436">
        <ele>9</ele>
        <time>2010-01-01T01:18:46Z</time>
      </trkpt>
      <trkpt lat="43.43203" lon="-3.94466">
        <ele>11</ele>
        <time>2010-01-01T01:18:55Z</time>
      </trkpt>
      <trkpt lat="43.43204" lon="-3.94477">
        <ele>11</ele>
        <time>2010-01-01T01:18:58Z</time>
      </trkpt>
      <trkpt lat="43.43212" lon="-3.94499">
        <ele>10</ele>
        <time>2010-01-01T01:19:05Z</time>
      </trkpt>
      <trkpt lat="43.43213" lon="-3.94515">
        <ele>10</ele>
        <time>2010-01-01T01:19:10Z</time>
      </trkpt>
      <trkpt lat="43.43212" lon="-3.94535">
        <ele>11</ele>
        <time>2010-01-01T01:19:16Z</time>
      </trkpt>
      <trkpt lat="43.43202" lon="-3.94588">
        <ele>14</ele>
        <time>2010-01-01T01:19:32Z</time>
      </trkpt>
      <trkpt lat="43.43202" lon="-3.94593">
        <ele>14</ele>
        <time>2010-01-01T01:19:33Z</time>
      </trkpt>
      <trkpt lat="43.43187" lon="-3.94595">
        <ele>15</ele>
        <time>2010-01-01T01:19:39Z</time>
      </trkpt>
      <trkpt lat="43.43183" lon="-3.94599">
        <ele>15</ele>
        <time>2010-01-01T01:19:41Z</time>
      </trkpt>
      <trkpt lat="43.43174" lon="-3.94641">
        <ele>15</ele>
        <time>2010-01-01T01:19:54Z</time>
      </trkpt>
      <trkpt lat="43.4317" lon="-3.94641">
        <ele>15</ele>
        <time>2010-01-01T01:19:56Z</time>
      </trkpt>
      <trkpt lat="43.43171" lon="-3.94633">
        <ele>15</ele>
        <time>2010-01-01T01:19:58Z</time>
      </trkpt>
      <trkpt lat="43.43145" lon="-3.94797">
        <ele>17</ele>
        <time>2010-01-01T01:20:47Z</time>
      </trkpt>
      <trkpt lat="43.43043" lon="-3.95145">
        <ele>4</ele>
        <time>2010-01-01T01:22:36Z</time>
      </trkpt>
      <trkpt lat="43.42794" lon="-3.95858">
        <ele>-1</ele>
        <time>2010-01-01T01:26:26Z</time>
      </trkpt>
      <trkpt lat="43.42764" lon="-3.95929">
        <ele>2</ele>
        <time>2010-01-01T01:26:50Z</time>
      </trkpt>
      <trkpt lat="43.42697" lon="-3.96">
        <ele>2</ele>
        <time>2010-01-01T01:27:24Z</time>
      </trkpt>
      <trkpt lat="43.4263" lon="-3.96028">
        <ele>1</ele>
        <time>2010-01-01T01:27:52Z</time>
      </trkpt>
      <trkpt lat="43.42592" lon="-3.9604">
        <ele>1</ele>
        <time>2010-01-01T01:28:07Z</time>
      </trkpt>
      <trkpt lat="43.4255" lon="-3.96047">
        <ele>2</ele>
        <time>2010-01-01T01:28:24Z</time>
      </trkpt>
      <trkpt lat="43.42503" lon="-3.96042">
        <ele>3</ele>
        <time>2010-01-01T01:28:43Z</time>
      </trkpt>
      <trkpt lat="43.42504" lon="-3.96028">
        <ele>2</ele>
        <time>2010-01-01T01:28:47Z</time>
      </trkpt>
      <trkpt lat="43.42492" lon="-3.96024">
        <ele>2</ele>
        <time>2010-01-01T01:28:52Z</time>
      </trkpt>
      <trkpt lat="43.42483" lon="-3.96015">
        <ele>2</ele>
        <time>2010-01-01T01:28:57Z</time>
      </trkpt>
      <trkpt lat="43.42448" lon="-3.96014">
        <ele>1</ele>
        <time>2010-01-01T01:29:11Z</time>
      </trkpt>
      <trkpt lat="43.42446" lon="-3.96016">
        <ele>1</ele>
        <time>2010-01-01T01:29:12Z</time>
      </trkpt>
      <trkpt lat="43.42444" lon="-3.9602">
        <ele>1</ele>
        <time>2010-01-01T01:29:13Z</time>
      </trkpt>
      <trkpt lat="43.42444" lon="-3.96039">
        <ele>1</ele>
        <time>2010-01-01T01:29:19Z</time>
      </trkpt>
      <trkpt lat="43.42446" lon="-3.96063">
        <ele>2</ele>
        <time>2010-01-01T01:29:26Z</time>
      </trkpt>
      <trkpt lat="43.42451" lon="-3.96075">
        <ele>2</ele>
        <time>2010-01-01T01:29:30Z</time>
      </trkpt>
      <trkpt lat="43.42454" lon="-3.96145">
        <ele>2</ele>
        <time>2010-01-01T01:29:50Z</time>
      </trkpt>
      <trkpt lat="43.42451" lon="-3.96162">
        <ele>2</ele>
        <time>2010-01-01T01:29:55Z</time>
      </trkpt>
      <trkpt lat="43.42446" lon="-3.96176">
        <ele>2</ele>
        <time>2010-01-01T01:30:00Z</time>
      </trkpt>
      <trkpt lat="43.42424" lon="-3.96207">
        <ele>3</ele>
        <time>2010-01-01T01:30:12Z</time>
      </trkpt>
      <trkpt lat="43.42423" lon="-3.96207">
        <ele>3</ele>
        <time>2010-01-01T01:30:13Z</time>
      </trkpt>
      <trkpt lat="43.42415" lon="-3.96218">
        <ele>3</ele>
        <time>2010-01-01T01:30:17Z</time>
      </trkpt>
      <trkpt lat="43.42417" lon="-3.96222">
        <ele>4</ele>
        <time>2010-01-01T01:30:19Z</time>
      </trkpt>
      <trkpt lat="43.4242" lon="-3.96237">
        <ele>5</ele>
        <time>2010-01-01T01:30:23Z</time>
      </trkpt>
      <trkpt lat="43.42415" lon="-3.96247">
        <ele>5</ele>
        <time>2010-01-01T01:30:27Z</time>
      </trkpt>
      <trkpt lat="43.42407" lon="-3.9625">
        <ele>6</ele>
        <time>2010-01-01T01:30:30Z</time>
      </trkpt>
      <trkpt lat="43.42396" lon="-3.96247">
        <ele>6</ele>
        <time>2010-01-01T01:30:34Z</time>
      </trkpt>
      <trkpt lat="43.42386" lon="-3.96258">
        <ele>8</ele>
        <time>2010-01-01T01:30:40Z</time>
      </trkpt>
      <trkpt lat="43.42373" lon="-3.96255">
        <ele>10</ele>
        <time>2010-01-01T01:30:45Z</time>
      </trkpt>
      <trkpt lat="43.42363" lon="-3.96238">
        <ele>9</ele>
        <time>2010-01-01T01:30:51Z</time>
      </trkpt>
      <trkpt lat="43.42347" lon="-3.96218">
        <ele>8</ele>
        <time>2010-01-01T01:31:00Z</time>
      </trkpt>
      <trkpt lat="43.42334" lon="-3.96211">
        <ele>9</ele>
        <time>2010-01-01T01:31:05Z</time>
      </trkpt>
      <trkpt lat="43.42267" lon="-3.96183">
        <ele>12</ele>
        <time>2010-01-01T01:31:33Z</time>
      </trkpt>
      <trkpt lat="43.42248" lon="-3.96176">
        <ele>10</ele>
        <time>2010-01-01T01:31:41Z</time>
      </trkpt>
      <trkpt lat="43.4221" lon="-3.9617">
        <ele>15</ele>
        <time>2010-01-01T01:31:57Z</time>
      </trkpt>
      <trkpt lat="43.42186" lon="-3.96168">
        <ele>16</ele>
        <time>2010-01-01T01:32:06Z</time>
      </trkpt>
      <trkpt lat="43.42137" lon="-3.96172">
        <ele>19</ele>
        <time>2010-01-01T01:32:26Z</time>
      </trkpt>
      <trkpt lat="43.42015" lon="-3.96191">
        <ele>30</ele>
        <time>2010-01-01T01:33:15Z</time>
      </trkpt>
      <trkpt lat="43.42014" lon="-3.96191">
        <ele>30</ele>
        <time>2010-01-01T01:33:15Z</time>
      </trkpt>
      <trkpt lat="43.42005" lon="-3.96196">
        <ele>30</ele>
        <time>2010-01-01T01:33:19Z</time>
      </trkpt>
      <trkpt lat="43.42003" lon="-3.96199">
        <ele>30</ele>
        <time>2010-01-01T01:33:21Z</time>
      </trkpt>
      <trkpt lat="43.42021" lon="-3.96215">
        <ele>30</ele>
        <time>2010-01-01T01:33:29Z</time>
      </trkpt>
      <trkpt lat="43.4209" lon="-3.96261">
        <ele>31</ele>
        <time>2010-01-01T01:34:00Z</time>
      </trkpt>
      <trkpt lat="43.42147" lon="-3.96294">
        <ele>33</ele>
        <time>2010-01-01T01:34:25Z</time>
      </trkpt>
      <trkpt lat="43.42175" lon="-3.96313">
        <ele>34</ele>
        <time>2010-01-01T01:34:37Z</time>
      </trkpt>
      <trkpt lat="43.42215" lon="-3.96349">
        <ele>35</ele>
        <time>2010-01-01T01:34:56Z</time>
      </trkpt>
      <trkpt lat="43.42245" lon="-3.96391">
        <ele>38</ele>
        <time>2010-01-01T01:35:13Z</time>
      </trkpt>
      <trkpt lat="43.42252" lon="-3.96398">
        <ele>39</ele>
        <time>2010-01-01T01:35:17Z</time>
      </trkpt>
      <trkpt lat="43.42286" lon="-3.96416">
        <ele>43</ele>
        <time>2010-01-01T01:35:31Z</time>
      </trkpt>
      <trkpt lat="43.42316" lon="-3.96444">
        <ele>46</ele>
        <time>2010-01-01T01:35:46Z</time>
      </trkpt>
      <trkpt lat="43.42323" lon="-3.96448">
        <ele>46</ele>
        <time>2010-01-01T01:35:49Z</time>
      </trkpt>
      <trkpt lat="43.42343" lon="-3.96453">
        <ele>48</ele>
        <time>2010-01-01T01:35:57Z</time>
      </trkpt>
      <trkpt lat="43.42381" lon="-3.96488">
        <ele>49</ele>
        <time>2010-01-01T01:36:15Z</time>
      </trkpt>
      <trkpt lat="43.42396" lon="-3.9651">
        <ele>48</ele>
        <time>2010-01-01T01:36:24Z</time>
      </trkpt>
      <trkpt lat="43.42406" lon="-3.9652">
        <ele>47</ele>
        <time>2010-01-01T01:36:29Z</time>
      </trkpt>
      <trkpt lat="43.42465" lon="-3.96569">
        <ele>42</ele>
        <time>2010-01-01T01:36:57Z</time>
      </trkpt>
      <trkpt lat="43.42504" lon="-3.96596">
        <ele>41</ele>
        <time>2010-01-01T01:37:14Z</time>
      </trkpt>
      <trkpt lat="43.42517" lon="-3.96609">
        <ele>40</ele>
        <time>2010-01-01T01:37:21Z</time>
      </trkpt>
      <trkpt lat="43.42535" lon="-3.96635">
        <ele>39</ele>
        <time>2010-01-01T01:37:31Z</time>
      </trkpt>
      <trkpt lat="43.42545" lon="-3.96655">
        <ele>40</ele>
        <time>2010-01-01T01:37:38Z</time>
      </trkpt>
      <trkpt lat="43.42552" lon="-3.96667">
        <ele>40</ele>
        <time>2010-01-01T01:37:42Z</time>
      </trkpt>
      <trkpt lat="43.42571" lon="-3.96688">
        <ele>39</ele>
        <time>2010-01-01T01:37:52Z</time>
      </trkpt>
      <trkpt lat="43.42578" lon="-3.96711">
        <ele>40</ele>
        <time>2010-01-01T01:37:59Z</time>
      </trkpt>
      <trkpt lat="43.42587" lon="-3.96761">
        <ele>40</ele>
        <time>2010-01-01T01:38:14Z</time>
      </trkpt>
      <trkpt lat="43.42582" lon="-3.96771">
        <ele>41</ele>
        <time>2010-01-01T01:38:18Z</time>
      </trkpt>
      <trkpt lat="43.42566" lon="-3.96769">
        <ele>43</ele>
        <time>2010-01-01T01:38:24Z</time>
      </trkpt>
      <trkpt lat="43.42538" lon="-3.96772">
        <ele>46</ele>
        <time>2010-01-01T01:38:36Z</time>
      </trkpt>
      <trkpt lat="43.42527" lon="-3.9678">
        <ele>47</ele>
        <time>2010-01-01T01:38:41Z</time>
      </trkpt>
      <trkpt lat="43.42543" lon="-3.9682">
        <ele>45</ele>
        <time>2010-01-01T01:38:54Z</time>
      </trkpt>
      <trkpt lat="43.42566" lon="-3.96862">
        <ele>46</ele>
        <time>2010-01-01T01:39:09Z</time>
      </trkpt>
      <trkpt lat="43.42575" lon="-3.96891">
        <ele>45</ele>
        <time>2010-01-01T01:39:18Z</time>
      </trkpt>
      <trkpt lat="43.42577" lon="-3.96967">
        <ele>47</ele>
        <time>2010-01-01T01:39:40Z</time>
      </trkpt>
      <trkpt lat="43.42584" lon="-3.96999">
        <ele>45</ele>
        <time>2010-01-01T01:39:50Z</time>
      </trkpt>
      <trkpt lat="43.42587" lon="-3.97037">
        <ele>44</ele>
        <time>2010-01-01T01:40:01Z</time>
      </trkpt>
      <trkpt lat="43.42599" lon="-3.97081">
        <ele>43</ele>
        <time>2010-01-01T01:40:15Z</time>
      </trkpt>
      <trkpt lat="43.42605" lon="-3.97094">
        <ele>42</ele>
        <time>2010-01-01T01:40:19Z</time>
      </trkpt>
      <trkpt lat="43.42611" lon="-3.97103">
        <ele>42</ele>
        <time>2010-01-01T01:40:23Z</time>
      </trkpt>
      <trkpt lat="43.42598" lon="-3.97162">
        <ele>42</ele>
        <time>2010-01-01T01:40:41Z</time>
      </trkpt>
      <trkpt lat="43.42587" lon="-3.9724">
        <ele>42</ele>
        <time>2010-01-01T01:41:04Z</time>
      </trkpt>
      <trkpt lat="43.42585" lon="-3.97258">
        <ele>42</ele>
        <time>2010-01-01T01:41:09Z</time>
      </trkpt>
      <trkpt lat="43.42586" lon="-3.97305">
        <ele>41</ele>
        <time>2010-01-01T01:41:23Z</time>
      </trkpt>
      <trkpt lat="43.42593" lon="-3.97341">
        <ele>40</ele>
        <time>2010-01-01T01:41:34Z</time>
      </trkpt>
      <trkpt lat="43.42606" lon="-3.97389">
        <ele>38</ele>
        <time>2010-01-01T01:41:49Z</time>
      </trkpt>
      <trkpt lat="43.42609" lon="-3.97414">
        <ele>38</ele>
        <time>2010-01-01T01:41:56Z</time>
      </trkpt>
      <trkpt lat="43.42625" lon="-3.97471">
        <ele>37</ele>
        <time>2010-01-01T01:42:14Z</time>
      </trkpt>
      <trkpt lat="43.42639" lon="-3.97507">
        <ele>37</ele>
        <time>2010-01-01T01:42:26Z</time>
      </trkpt>
      <trkpt lat="43.42655" lon="-3.97569">
        <ele>40</ele>
        <time>2010-01-01T01:42:45Z</time>
      </trkpt>
      <trkpt lat="43.42661" lon="-3.9758">
        <ele>40</ele>
        <time>2010-01-01T01:42:49Z</time>
      </trkpt>
      <trkpt lat="43.42674" lon="-3.97592">
        <ele>42</ele>
        <time>2010-01-01T01:42:55Z</time>
      </trkpt>
      <trkpt lat="43.42715" lon="-3.97606">
        <ele>43</ele>
        <time>2010-01-01T01:43:12Z</time>
      </trkpt>
      <trkpt lat="43.42716" lon="-3.97607">
        <ele>44</ele>
        <time>2010-01-01T01:43:13Z</time>
      </trkpt>
      <trkpt lat="43.427" lon="-3.97631">
        <ele>46</ele>
        <time>2010-01-01T01:43:22Z</time>
      </trkpt>
      <trkpt lat="43.42697" lon="-3.97644">
        <ele>46</ele>
        <time>2010-01-01T01:43:26Z</time>
      </trkpt>
      <trkpt lat="43.42699" lon="-3.97669">
        <ele>47</ele>
        <time>2010-01-01T01:43:33Z</time>
      </trkpt>
      <trkpt lat="43.4269" lon="-3.97678">
        <ele>48</ele>
        <time>2010-01-01T01:43:38Z</time>
      </trkpt>
      <trkpt lat="43.42652" lon="-3.97708">
        <ele>50</ele>
        <time>2010-01-01T01:43:55Z</time>
      </trkpt>
      <trkpt lat="43.42629" lon="-3.97733">
        <ele>50</ele>
        <time>2010-01-01T01:44:07Z</time>
      </trkpt>
      <trkpt lat="43.42618" lon="-3.97743">
        <ele>50</ele>
        <time>2010-01-01T01:44:12Z</time>
      </trkpt>
      <trkpt lat="43.42609" lon="-3.97746">
        <ele>50</ele>
        <time>2010-01-01T01:44:16Z</time>
      </trkpt>
      <trkpt lat="43.42598" lon="-3.97752">
        <ele>50</ele>
        <time>2010-01-01T01:44:21Z</time>
      </trkpt>
      <trkpt lat="43.42588" lon="-3.97762">
        <ele>50</ele>
        <time>2010-01-01T01:44:26Z</time>
      </trkpt>
      <trkpt lat="43.42581" lon="-3.97772">
        <ele>51</ele>
        <time>2010-01-01T01:44:30Z</time>
      </trkpt>
      <trkpt lat="43.42581" lon="-3.97786">
        <ele>51</ele>
        <time>2010-01-01T01:44:34Z</time>
      </trkpt>
      <trkpt lat="43.42591" lon="-3.97838">
        <ele>46</ele>
        <time>2010-01-01T01:44:49Z</time>
      </trkpt>
      <trkpt lat="43.42592" lon="-3.97859">
        <ele>45</ele>
        <time>2010-01-01T01:44:56Z</time>
      </trkpt>
      <trkpt lat="43.4259" lon="-3.97879">
        <ele>45</ele>
        <time>2010-01-01T01:45:01Z</time>
      </trkpt>
      <trkpt lat="43.42582" lon="-3.97905">
        <ele>45</ele>
        <time>2010-01-01T01:45:10Z</time>
      </trkpt>
      <trkpt lat="43.42573" lon="-3.97924">
        <ele>46</ele>
        <time>2010-01-01T01:45:16Z</time>
      </trkpt>
      <trkpt lat="43.42565" lon="-3.97938">
        <ele>45</ele>
        <time>2010-01-01T01:45:21Z</time>
      </trkpt>
      <trkpt lat="43.42552" lon="-3.97953">
        <ele>46</ele>
        <time>2010-01-01T01:45:28Z</time>
      </trkpt>
      <trkpt lat="43.42527" lon="-3.97973">
        <ele>50</ele>
        <time>2010-01-01T01:45:40Z</time>
      </trkpt>
      <trkpt lat="43.42489" lon="-3.97987">
        <ele>53</ele>
        <time>2010-01-01T01:45:56Z</time>
      </trkpt>
      <trkpt lat="43.42458" lon="-3.98013">
        <ele>57</ele>
        <time>2010-01-01T01:46:10Z</time>
      </trkpt>
      <trkpt lat="43.42413" lon="-3.9804">
        <ele>61</ele>
        <time>2010-01-01T01:46:30Z</time>
      </trkpt>
      <trkpt lat="43.42381" lon="-3.98052">
        <ele>64</ele>
        <time>2010-01-01T01:46:43Z</time>
      </trkpt>
      <trkpt lat="43.42353" lon="-3.98065">
        <ele>65</ele>
        <time>2010-01-01T01:46:55Z</time>
      </trkpt>
      <trkpt lat="43.42342" lon="-3.98064">
        <ele>65</ele>
        <time>2010-01-01T01:46:59Z</time>
      </trkpt>
      <trkpt lat="43.42296" lon="-3.98042">
        <ele>64</ele>
        <time>2010-01-01T01:47:19Z</time>
      </trkpt>
      <trkpt lat="43.42258" lon="-3.98035">
        <ele>61</ele>
        <time>2010-01-01T01:47:34Z</time>
      </trkpt>
      <trkpt lat="43.42238" lon="-3.98027">
        <ele>60</ele>
        <time>2010-01-01T01:47:42Z</time>
      </trkpt>
      <trkpt lat="43.42222" lon="-3.98017">
        <ele>58</ele>
        <time>2010-01-01T01:47:49Z</time>
      </trkpt>
      <trkpt lat="43.42194" lon="-3.97995">
        <ele>58</ele>
        <time>2010-01-01T01:48:02Z</time>
      </trkpt>
      <trkpt lat="43.42176" lon="-3.97989">
        <ele>58</ele>
        <time>2010-01-01T01:48:10Z</time>
      </trkpt>
      <trkpt lat="43.42157" lon="-3.97987">
        <ele>57</ele>
        <time>2010-01-01T01:48:17Z</time>
      </trkpt>
      <trkpt lat="43.42142" lon="-3.97989">
        <ele>56</ele>
        <time>2010-01-01T01:48:23Z</time>
      </trkpt>
      <trkpt lat="43.42111" lon="-3.97996">
        <ele>55</ele>
        <time>2010-01-01T01:48:36Z</time>
      </trkpt>
      <trkpt lat="43.42086" lon="-3.98007">
        <ele>54</ele>
        <time>2010-01-01T01:48:46Z</time>
      </trkpt>
      <trkpt lat="43.42018" lon="-3.98045">
        <ele>58</ele>
        <time>2010-01-01T01:49:16Z</time>
      </trkpt>
      <trkpt lat="43.41981" lon="-3.98053">
        <ele>58</ele>
        <time>2010-01-01T01:49:31Z</time>
      </trkpt>
      <trkpt lat="43.41969" lon="-3.98062">
        <ele>58</ele>
        <time>2010-01-01T01:49:36Z</time>
      </trkpt>
      <trkpt lat="43.41951" lon="-3.9808">
        <ele>58</ele>
        <time>2010-01-01T01:49:45Z</time>
      </trkpt>
      <trkpt lat="43.41936" lon="-3.98091">
        <ele>59</ele>
        <time>2010-01-01T01:49:52Z</time>
      </trkpt>
      <trkpt lat="43.41859" lon="-3.98119">
        <ele>63</ele>
        <time>2010-01-01T01:50:24Z</time>
      </trkpt>
      <trkpt lat="43.41843" lon="-3.98131">
        <ele>63</ele>
        <time>2010-01-01T01:50:31Z</time>
      </trkpt>
      <trkpt lat="43.41832" lon="-3.98151">
        <ele>63</ele>
        <time>2010-01-01T01:50:38Z</time>
      </trkpt>
      <trkpt lat="43.41825" lon="-3.98175">
        <ele>62</ele>
        <time>2010-01-01T01:50:46Z</time>
      </trkpt>
      <trkpt lat="43.4182" lon="-3.98206">
        <ele>64</ele>
        <time>2010-01-01T01:50:55Z</time>
      </trkpt>
      <trkpt lat="43.4182" lon="-3.98228">
        <ele>65</ele>
        <time>2010-01-01T01:51:02Z</time>
      </trkpt>
      <trkpt lat="43.41818" lon="-3.98248">
        <ele>66</ele>
        <time>2010-01-01T01:51:08Z</time>
      </trkpt>
      <trkpt lat="43.41793" lon="-3.98304">
        <ele>68</ele>
        <time>2010-01-01T01:51:27Z</time>
      </trkpt>
      <trkpt lat="43.41788" lon="-3.98328">
        <ele>68</ele>
        <time>2010-01-01T01:51:34Z</time>
      </trkpt>
      <trkpt lat="43.41789" lon="-3.98349">
        <ele>70</ele>
        <time>2010-01-01T01:51:40Z</time>
      </trkpt>
      <trkpt lat="43.41799" lon="-3.98369">
        <ele>71</ele>
        <time>2010-01-01T01:51:47Z</time>
      </trkpt>
      <trkpt lat="43.41807" lon="-3.98389">
        <ele>72</ele>
        <time>2010-01-01T01:51:54Z</time>
      </trkpt>
      <trkpt lat="43.41809" lon="-3.98414">
        <ele>75</ele>
        <time>2010-01-01T01:52:01Z</time>
      </trkpt>
      <trkpt lat="43.41807" lon="-3.98435">
        <ele>77</ele>
        <time>2010-01-01T01:52:07Z</time>
      </trkpt>
      <trkpt lat="43.41791" lon="-3.98506">
        <ele>80</ele>
        <time>2010-01-01T01:52:29Z</time>
      </trkpt>
      <trkpt lat="43.41788" lon="-3.98527">
        <ele>82</ele>
        <time>2010-01-01T01:52:35Z</time>
      </trkpt>
      <trkpt lat="43.41787" lon="-3.98559">
        <ele>83</ele>
        <time>2010-01-01T01:52:44Z</time>
      </trkpt>
      <trkpt lat="43.41777" lon="-3.98717">
        <ele>88</ele>
        <time>2010-01-01T01:53:30Z</time>
      </trkpt>
      <trkpt lat="43.41772" lon="-3.98755">
        <ele>86</ele>
        <time>2010-01-01T01:53:42Z</time>
      </trkpt>
      <trkpt lat="43.41762" lon="-3.98813">
        <ele>86</ele>
        <time>2010-01-01T01:53:59Z</time>
      </trkpt>
      <trkpt lat="43.41752" lon="-3.9886">
        <ele>88</ele>
        <time>2010-01-01T01:54:13Z</time>
      </trkpt>
      <trkpt lat="43.41731" lon="-3.98925">
        <ele>94</ele>
        <time>2010-01-01T01:54:34Z</time>
      </trkpt>
      <trkpt lat="43.41731" lon="-3.98941">
        <ele>95</ele>
        <time>2010-01-01T01:54:39Z</time>
      </trkpt>
      <trkpt lat="43.41748" lon="-3.99044">
        <ele>101</ele>
        <time>2010-01-01T01:55:09Z</time>
      </trkpt>
      <trkpt lat="43.4175" lon="-3.99092">
        <ele>104</ele>
        <time>2010-01-01T01:55:23Z</time>
      </trkpt>
      <trkpt lat="43.41741" lon="-3.99126">
        <ele>106</ele>
        <time>2010-01-01T01:55:34Z</time>
      </trkpt>
      <trkpt lat="43.41636" lon="-3.99237">
        <ele>109</ele>
        <time>2010-01-01T01:56:27Z</time>
      </trkpt>
      <trkpt lat="43.41515" lon="-3.99373">
        <ele>102</ele>
        <time>2010-01-01T01:57:29Z</time>
      </trkpt>
      <trkpt lat="43.41514" lon="-3.99373">
        <ele>102</ele>
        <time>2010-01-01T01:57:30Z</time>
      </trkpt>
      <trkpt lat="43.41509" lon="-3.99379">
        <ele>101</ele>
        <time>2010-01-01T01:57:32Z</time>
      </trkpt>
      <trkpt lat="43.41545" lon="-3.99394">
        <ele>100</ele>
        <time>2010-01-01T01:57:47Z</time>
      </trkpt>
      <trkpt lat="43.41609" lon="-3.99411">
        <ele>100</ele>
        <time>2010-01-01T01:58:14Z</time>
      </trkpt>
      <trkpt lat="43.41757" lon="-3.99454">
        <ele>107</ele>
        <time>2010-01-01T01:59:14Z</time>
      </trkpt>
      <trkpt lat="43.41793" lon="-3.99468">
        <ele>110</ele>
        <time>2010-01-01T01:59:29Z</time>
      </trkpt>
      <trkpt lat="43.41838" lon="-3.9949">
        <ele>112</ele>
        <time>2010-01-01T01:59:48Z</time>
      </trkpt>
      <trkpt lat="43.41858" lon="-3.99495">
        <ele>113</ele>
        <time>2010-01-01T01:59:56Z</time>
      </trkpt>
      <trkpt lat="43.41883" lon="-3.9949">
        <ele>114</ele>
        <time>2010-01-01T02:00:06Z</time>
      </trkpt>
      <trkpt lat="43.41913" lon="-3.99482">
        <ele>114</ele>
        <time>2010-01-01T02:00:19Z</time>
      </trkpt>
      <trkpt lat="43.41928" lon="-3.99481">
        <ele>113</ele>
        <time>2010-01-01T02:00:25Z</time>
      </trkpt>
      <trkpt lat="43.41943" lon="-3.99486">
        <ele>111</ele>
        <time>2010-01-01T02:00:31Z</time>
      </trkpt>
      <trkpt lat="43.42093" lon="-3.99662">
        <ele>83</ele>
        <time>2010-01-01T02:01:50Z</time>
      </trkpt>
      <trkpt lat="43.421" lon="-3.99675">
        <ele>81</ele>
        <time>2010-01-01T02:01:54Z</time>
      </trkpt>
      <trkpt lat="43.42152" lon="-3.99878">
        <ele>66</ele>
        <time>2010-01-01T02:02:57Z</time>
      </trkpt>
      <trkpt lat="43.42162" lon="-3.99905">
        <ele>66</ele>
        <time>2010-01-01T02:03:06Z</time>
      </trkpt>
      <trkpt lat="43.42174" lon="-3.99921">
        <ele>65</ele>
        <time>2010-01-01T02:03:13Z</time>
      </trkpt>
      <trkpt lat="43.42178" lon="-3.99937">
        <ele>64</ele>
        <time>2010-01-01T02:03:17Z</time>
      </trkpt>
      <trkpt lat="43.4218" lon="-3.99941">
        <ele>64</ele>
        <time>2010-01-01T02:03:19Z</time>
      </trkpt>
      <trkpt lat="43.42213" lon="-3.99996">
        <ele>63</ele>
        <time>2010-01-01T02:03:40Z</time>
      </trkpt>
      <trkpt lat="43.42221" lon="-4.0002">
        <ele>62</ele>
        <time>2010-01-01T02:03:47Z</time>
      </trkpt>
      <trkpt lat="43.42231" lon="-4.00029">
        <ele>62</ele>
        <time>2010-01-01T02:03:52Z</time>
      </trkpt>
      <trkpt lat="43.42268" lon="-4.00051">
        <ele>66</ele>
        <time>2010-01-01T02:04:08Z</time>
      </trkpt>
      <trkpt lat="43.42292" lon="-4.00053">
        <ele>65</ele>
        <time>2010-01-01T02:04:18Z</time>
      </trkpt>
      <trkpt lat="43.42361" lon="-4.00066">
        <ele>61</ele>
        <time>2010-01-01T02:04:46Z</time>
      </trkpt>
      <trkpt lat="43.42379" lon="-4.00066">
        <ele>59</ele>
        <time>2010-01-01T02:04:53Z</time>
      </trkpt>
      <trkpt lat="43.42421" lon="-4.00057">
        <ele>60</ele>
        <time>2010-01-01T02:05:10Z</time>
      </trkpt>
      <trkpt lat="43.42455" lon="-4.00057">
        <ele>62</ele>
        <time>2010-01-01T02:05:24Z</time>
      </trkpt>
      <trkpt lat="43.42466" lon="-4.00059">
        <ele>62</ele>
        <time>2010-01-01T02:05:28Z</time>
      </trkpt>
      <trkpt lat="43.4251" lon="-4.00077">
        <ele>63</ele>
        <time>2010-01-01T02:05:46Z</time>
      </trkpt>
      <trkpt lat="43.42554" lon="-4.00077">
        <ele>64</ele>
        <time>2010-01-01T02:06:04Z</time>
      </trkpt>
      <trkpt lat="43.42584" lon="-4.001">
        <ele>63</ele>
        <time>2010-01-01T02:06:18Z</time>
      </trkpt>
      <trkpt lat="43.42581" lon="-4.00112">
        <ele>64</ele>
        <time>2010-01-01T02:06:21Z</time>
      </trkpt>
      <trkpt lat="43.42582" lon="-4.00143">
        <ele>63</ele>
        <time>2010-01-01T02:06:30Z</time>
      </trkpt>
      <trkpt lat="43.42586" lon="-4.00169">
        <ele>62</ele>
        <time>2010-01-01T02:06:38Z</time>
      </trkpt>
      <trkpt lat="43.42599" lon="-4.00222">
        <ele>62</ele>
        <time>2010-01-01T02:06:54Z</time>
      </trkpt>
      <trkpt lat="43.42603" lon="-4.00252">
        <ele>63</ele>
        <time>2010-01-01T02:07:03Z</time>
      </trkpt>
      <trkpt lat="43.42616" lon="-4.00318">
        <ele>66</ele>
        <time>2010-01-01T02:07:23Z</time>
      </trkpt>
      <trkpt lat="43.42619" lon="-4.00353">
        <ele>69</ele>
        <time>2010-01-01T02:07:33Z</time>
      </trkpt>
      <trkpt lat="43.42611" lon="-4.00403">
        <ele>72</ele>
        <time>2010-01-01T02:07:48Z</time>
      </trkpt>
      <trkpt lat="43.42622" lon="-4.00433">
        <ele>73</ele>
        <time>2010-01-01T02:07:58Z</time>
      </trkpt>
      <trkpt lat="43.42625" lon="-4.00453">
        <ele>73</ele>
        <time>2010-01-01T02:08:04Z</time>
      </trkpt>
      <trkpt lat="43.42631" lon="-4.00544">
        <ele>74</ele>
        <time>2010-01-01T02:08:31Z</time>
      </trkpt>
      <trkpt lat="43.4262" lon="-4.00631">
        <ele>73</ele>
        <time>2010-01-01T02:08:56Z</time>
      </trkpt>
      <trkpt lat="43.42635" lon="-4.00712">
        <ele>72</ele>
        <time>2010-01-01T02:09:21Z</time>
      </trkpt>
      <trkpt lat="43.4264" lon="-4.00745">
        <ele>71</ele>
        <time>2010-01-01T02:09:30Z</time>
      </trkpt>
      <trkpt lat="43.42639" lon="-4.008">
        <ele>73</ele>
        <time>2010-01-01T02:09:46Z</time>
      </trkpt>
      <trkpt lat="43.4264" lon="-4.00824">
        <ele>73</ele>
        <time>2010-01-01T02:09:53Z</time>
      </trkpt>
      <trkpt lat="43.42644" lon="-4.00845">
        <ele>72</ele>
        <time>2010-01-01T02:10:00Z</time>
      </trkpt>
      <trkpt lat="43.42654" lon="-4.00886">
        <ele>71</ele>
        <time>2010-01-01T02:10:12Z</time>
      </trkpt>
      <trkpt lat="43.42656" lon="-4.00906">
        <ele>70</ele>
        <time>2010-01-01T02:10:18Z</time>
      </trkpt>
      <trkpt lat="43.42655" lon="-4.00926">
        <ele>69</ele>
        <time>2010-01-01T02:10:24Z</time>
      </trkpt>
      <trkpt lat="43.42641" lon="-4.00994">
        <ele>69</ele>
        <time>2010-01-01T02:10:44Z</time>
      </trkpt>
      <trkpt lat="43.42639" lon="-4.01006">
        <ele>70</ele>
        <time>2010-01-01T02:10:48Z</time>
      </trkpt>
      <trkpt lat="43.4265" lon="-4.01037">
        <ele>68</ele>
        <time>2010-01-01T02:10:58Z</time>
      </trkpt>
      <trkpt lat="43.42671" lon="-4.01085">
        <ele>66</ele>
        <time>2010-01-01T02:11:14Z</time>
      </trkpt>
      <trkpt lat="43.42686" lon="-4.01131">
        <ele>68</ele>
        <time>2010-01-01T02:11:29Z</time>
      </trkpt>
      <trkpt lat="43.42685" lon="-4.01148">
        <ele>68</ele>
        <time>2010-01-01T02:11:34Z</time>
      </trkpt>
      <trkpt lat="43.42671" lon="-4.01171">
        <ele>69</ele>
        <time>2010-01-01T02:11:43Z</time>
      </trkpt>
      <trkpt lat="43.42668" lon="-4.01184">
        <ele>69</ele>
        <time>2010-01-01T02:11:47Z</time>
      </trkpt>
      <trkpt lat="43.42668" lon="-4.01185">
        <ele>69</ele>
        <time>2010-01-01T02:11:47Z</time>
      </trkpt>
      <trkpt lat="43.42667" lon="-4.01187">
        <ele>69</ele>
        <time>2010-01-01T02:11:48Z</time>
      </trkpt>
      <trkpt lat="43.426" lon="-4.01172">
        <ele>70</ele>
        <time>2010-01-01T02:12:15Z</time>
      </trkpt>
      <trkpt lat="43.42588" lon="-4.01175">
        <ele>70</ele>
        <time>2010-01-01T02:12:20Z</time>
      </trkpt>
      <trkpt lat="43.42576" lon="-4.01182">
        <ele>70</ele>
        <time>2010-01-01T02:12:25Z</time>
      </trkpt>
      <trkpt lat="43.42558" lon="-4.01201">
        <ele>70</ele>
        <time>2010-01-01T02:12:34Z</time>
      </trkpt>
      <trkpt lat="43.42462" lon="-4.01323">
        <ele>69</ele>
        <time>2010-01-01T02:13:26Z</time>
      </trkpt>
      <trkpt lat="43.42437" lon="-4.01364">
        <ele>68</ele>
        <time>2010-01-01T02:13:42Z</time>
      </trkpt>
      <trkpt lat="43.4242" lon="-4.01383">
        <ele>70</ele>
        <time>2010-01-01T02:13:51Z</time>
      </trkpt>
      <trkpt lat="43.42403" lon="-4.01397">
        <ele>71</ele>
        <time>2010-01-01T02:13:59Z</time>
      </trkpt>
      <trkpt lat="43.42388" lon="-4.01405">
        <ele>72</ele>
        <time>2010-01-01T02:14:05Z</time>
      </trkpt>
      <trkpt lat="43.42357" lon="-4.01415">
        <ele>69</ele>
        <time>2010-01-01T02:14:18Z</time>
      </trkpt>
      <trkpt lat="43.42346" lon="-4.01415">
        <ele>66</ele>
        <time>2010-01-01T02:14:22Z</time>
      </trkpt>
      <trkpt lat="43.42215" lon="-4.01396">
        <ele>53</ele>
        <time>2010-01-01T02:15:15Z</time>
      </trkpt>
      <trkpt lat="43.42023" lon="-4.01373">
        <ele>42</ele>
        <time>2010-01-01T02:16:32Z</time>
      </trkpt>
      <trkpt lat="43.41875" lon="-4.01351">
        <ele>31</ele>
        <time>2010-01-01T02:17:32Z</time>
      </trkpt>
      <trkpt lat="43.41785" lon="-4.0134">
        <ele>28</ele>
        <time>2010-01-01T02:18:08Z</time>
      </trkpt>
      <trkpt lat="43.41675" lon="-4.0132">
        <ele>28</ele>
        <time>2010-01-01T02:18:52Z</time>
      </trkpt>
      <trkpt lat="43.41656" lon="-4.01319">
        <ele>30</ele>
        <time>2010-01-01T02:19:00Z</time>
      </trkpt>
      <trkpt lat="43.41598" lon="-4.01311">
        <ele>26</ele>
        <time>2010-01-01T02:19:23Z</time>
      </trkpt>
      <trkpt lat="43.41586" lon="-4.01312">
        <ele>24</ele>
        <time>2010-01-01T02:19:28Z</time>
      </trkpt>
      <trkpt lat="43.41569" lon="-4.01318">
        <ele>21</ele>
        <time>2010-01-01T02:19:35Z</time>
      </trkpt>
      <trkpt lat="43.41547" lon="-4.01335">
        <ele>19</ele>
        <time>2010-01-01T02:19:45Z</time>
      </trkpt>
      <trkpt lat="43.41521" lon="-4.01371">
        <ele>17</ele>
        <time>2010-01-01T02:20:00Z</time>
      </trkpt>
      <trkpt lat="43.41505" lon="-4.01385">
        <ele>15</ele>
        <time>2010-01-01T02:20:07Z</time>
      </trkpt>
      <trkpt lat="43.4149" lon="-4.01392">
        <ele>14</ele>
        <time>2010-01-01T02:20:14Z</time>
      </trkpt>
      <trkpt lat="43.41477" lon="-4.01396">
        <ele>13</ele>
        <time>2010-01-01T02:20:19Z</time>
      </trkpt>
      <trkpt lat="43.41044" lon="-4.01377">
        <ele>4</ele>
        <time>2010-01-01T02:23:12Z</time>
      </trkpt>
      <trkpt lat="43.40874" lon="-4.01377">
        <ele>2</ele>
        <time>2010-01-01T02:24:21Z</time>
      </trkpt>
      <trkpt lat="43.40835" lon="-4.01386">
        <ele>2</ele>
        <time>2010-01-01T02:24:36Z</time>
      </trkpt>
      <trkpt lat="43.40802" lon="-4.01399">
        <ele>3</ele>
        <time>2010-01-01T02:24:50Z</time>
      </trkpt>
      <trkpt lat="43.40594" lon="-4.01474">
        <ele>4</ele>
        <time>2010-01-01T02:26:16Z</time>
      </trkpt>
      <trkpt lat="43.40597" lon="-4.01394">
        <ele>9</ele>
        <time>2010-01-01T02:26:39Z</time>
      </trkpt>
      <trkpt lat="43.40595" lon="-4.01331">
        <ele>10</ele>
        <time>2010-01-01T02:26:58Z</time>
      </trkpt>
      <trkpt lat="43.40594" lon="-4.01318">
        <ele>10</ele>
        <time>2010-01-01T02:27:02Z</time>
      </trkpt>
      <trkpt lat="43.40504" lon="-4.01337">
        <ele>7</ele>
        <time>2010-01-01T02:27:38Z</time>
      </trkpt>
      <trkpt lat="43.40503" lon="-4.01337">
        <ele>7</ele>
        <time>2010-01-01T02:27:38Z</time>
      </trkpt>
      <trkpt lat="43.40096" lon="-4.01425">
        <ele>10</ele>
        <time>2010-01-01T02:30:23Z</time>
      </trkpt>
      <trkpt lat="43.40077" lon="-4.01427">
        <ele>10</ele>
        <time>2010-01-01T02:30:31Z</time>
      </trkpt>
      <trkpt lat="43.40063" lon="-4.01425">
        <ele>10</ele>
        <time>2010-01-01T02:30:37Z</time>
      </trkpt>
      <trkpt lat="43.40028" lon="-4.0141">
        <ele>8</ele>
        <time>2010-01-01T02:30:51Z</time>
      </trkpt>
      <trkpt lat="43.3999" lon="-4.01381">
        <ele>5</ele>
        <time>2010-01-01T02:31:09Z</time>
      </trkpt>
      <trkpt lat="43.39986" lon="-4.01376">
        <ele>5</ele>
        <time>2010-01-01T02:31:11Z</time>
      </trkpt>
      <trkpt lat="43.39975" lon="-4.01359">
        <ele>5</ele>
        <time>2010-01-01T02:31:18Z</time>
      </trkpt>
      <trkpt lat="43.39974" lon="-4.01348">
        <ele>5</ele>
        <time>2010-01-01T02:31:21Z</time>
      </trkpt>
      <trkpt lat="43.39968" lon="-4.01332">
        <ele>5</ele>
        <time>2010-01-01T02:31:26Z</time>
      </trkpt>
      <trkpt lat="43.39963" lon="-4.01326">
        <ele>5</ele>
        <time>2010-01-01T02:31:29Z</time>
      </trkpt>
      <trkpt lat="43.3996" lon="-4.01317">
        <ele>5</ele>
        <time>2010-01-01T02:31:32Z</time>
      </trkpt>
      <trkpt lat="43.39962" lon="-4.01298">
        <ele>6</ele>
        <time>2010-01-01T02:31:37Z</time>
      </trkpt>
      <trkpt lat="43.39967" lon="-4.01286">
        <ele>7</ele>
        <time>2010-01-01T02:31:41Z</time>
      </trkpt>
      <trkpt lat="43.39973" lon="-4.01259">
        <ele>8</ele>
        <time>2010-01-01T02:31:49Z</time>
      </trkpt>
      <trkpt lat="43.39974" lon="-4.01245">
        <ele>9</ele>
        <time>2010-01-01T02:31:53Z</time>
      </trkpt>
      <trkpt lat="43.39974" lon="-4.01212">
        <ele>9</ele>
        <time>2010-01-01T02:32:03Z</time>
      </trkpt>
      <trkpt lat="43.39965" lon="-4.01155">
        <ele>8</ele>
        <time>2010-01-01T02:32:20Z</time>
      </trkpt>
      <trkpt lat="43.39962" lon="-4.01101">
        <ele>11</ele>
        <time>2010-01-01T02:32:36Z</time>
      </trkpt>
      <trkpt lat="43.39964" lon="-4.0109">
        <ele>11</ele>
        <time>2010-01-01T02:32:39Z</time>
      </trkpt>
      <trkpt lat="43.3997" lon="-4.0107">
        <ele>12</ele>
        <time>2010-01-01T02:32:45Z</time>
      </trkpt>
      <trkpt lat="43.39996" lon="-4.01019">
        <ele>13</ele>
        <time>2010-01-01T02:33:03Z</time>
      </trkpt>
      <trkpt lat="43.40006" lon="-4.0098">
        <ele>12</ele>
        <time>2010-01-01T02:33:15Z</time>
      </trkpt>
      <trkpt lat="43.40007" lon="-4.00951">
        <ele>12</ele>
        <time>2010-01-01T02:33:24Z</time>
      </trkpt>
      <trkpt lat="43.39952" lon="-4.00947">
        <ele>8</ele>
        <time>2010-01-01T02:33:46Z</time>
      </trkpt>
      <trkpt lat="43.39917" lon="-4.00946">
        <ele>6</ele>
        <time>2010-01-01T02:34:00Z</time>
      </trkpt>
      <trkpt lat="43.39885" lon="-4.00956">
        <ele>8</ele>
        <time>2010-01-01T02:34:13Z</time>
      </trkpt>
      <trkpt lat="43.39847" lon="-4.00977">
        <ele>10</ele>
        <time>2010-01-01T02:34:30Z</time>
      </trkpt>
      <trkpt lat="43.39834" lon="-4.00977">
        <ele>11</ele>
        <time>2010-01-01T02:34:35Z</time>
      </trkpt>
      <trkpt lat="43.39786" lon="-4.00975">
        <ele>13</ele>
        <time>2010-01-01T02:34:54Z</time>
      </trkpt>
      <trkpt lat="43.39718" lon="-4.00941">
        <ele>17</ele>
        <time>2010-01-01T02:35:23Z</time>
      </trkpt>
      <trkpt lat="43.39708" lon="-4.00936">
        <ele>17</ele>
        <time>2010-01-01T02:35:27Z</time>
      </trkpt>
      <trkpt lat="43.39689" lon="-4.00956">
        <ele>17</ele>
        <time>2010-01-01T02:35:37Z</time>
      </trkpt>
      <trkpt lat="43.39669" lon="-4.00998">
        <ele>16</ele>
        <time>2010-01-01T02:35:51Z</time>
      </trkpt>
      <trkpt lat="43.39639" lon="-4.01041">
        <ele>16</ele>
        <time>2010-01-01T02:36:09Z</time>
      </trkpt>
      <trkpt lat="43.3955" lon="-4.01267">
        <ele>13</ele>
        <time>2010-01-01T02:37:23Z</time>
      </trkpt>
      <trkpt lat="43.39526" lon="-4.01341">
        <ele>14</ele>
        <time>2010-01-01T02:37:47Z</time>
      </trkpt>
      <trkpt lat="43.39512" lon="-4.014">
        <ele>12</ele>
        <time>2010-01-01T02:38:05Z</time>
      </trkpt>
      <trkpt lat="43.39474" lon="-4.01493">
        <ele>11</ele>
        <time>2010-01-01T02:38:36Z</time>
      </trkpt>
      <trkpt lat="43.39437" lon="-4.01537">
        <ele>8</ele>
        <time>2010-01-01T02:38:56Z</time>
      </trkpt>
      <trkpt lat="43.39423" lon="-4.01537">
        <ele>8</ele>
        <time>2010-01-01T02:39:01Z</time>
      </trkpt>
      <trkpt lat="43.39419" lon="-4.01551">
        <ele>8</ele>
        <time>2010-01-01T02:39:06Z</time>
      </trkpt>
      <trkpt lat="43.39373" lon="-4.01658">
        <ele>6</ele>
        <time>2010-01-01T02:39:42Z</time>
      </trkpt>
      <trkpt lat="43.39373" lon="-4.01659">
        <ele>6</ele>
        <time>2010-01-01T02:39:42Z</time>
      </trkpt>
      <trkpt lat="43.3935" lon="-4.01736">
        <ele>8</ele>
        <time>2010-01-01T02:40:06Z</time>
      </trkpt>
      <trkpt lat="43.39286" lon="-4.01852">
        <ele>10</ele>
        <time>2010-01-01T02:40:49Z</time>
      </trkpt>
      <trkpt lat="43.39278" lon="-4.01862">
        <ele>10</ele>
        <time>2010-01-01T02:40:53Z</time>
      </trkpt>
      <trkpt lat="43.39187" lon="-4.02011">
        <ele>12</ele>
        <time>2010-01-01T02:41:50Z</time>
      </trkpt>
      <trkpt lat="43.39167" lon="-4.02054">
        <ele>14</ele>
        <time>2010-01-01T02:42:04Z</time>
      </trkpt>
      <trkpt lat="43.39148" lon="-4.02148">
        <ele>15</ele>
        <time>2010-01-01T02:42:33Z</time>
      </trkpt>
      <trkpt lat="43.3914" lon="-4.02172">
        <ele>14</ele>
        <time>2010-01-01T02:42:41Z</time>
      </trkpt>
      <trkpt lat="43.39143" lon="-4.02183">
        <ele>14</ele>
        <time>2010-01-01T02:42:44Z</time>
      </trkpt>
      <trkpt lat="43.39143" lon="-4.02191">
        <ele>14</ele>
        <time>2010-01-01T02:42:46Z</time>
      </trkpt>
      <trkpt lat="43.39141" lon="-4.02198">
        <ele>14</ele>
        <time>2010-01-01T02:42:48Z</time>
      </trkpt>
      <trkpt lat="43.39136" lon="-4.02204">
        <ele>13</ele>
        <time>2010-01-01T02:42:51Z</time>
      </trkpt>
      <trkpt lat="43.39116" lon="-4.02327">
        <ele>13</ele>
        <time>2010-01-01T02:43:28Z</time>
      </trkpt>
      <trkpt lat="43.39096" lon="-4.02335">
        <ele>14</ele>
        <time>2010-01-01T02:43:36Z</time>
      </trkpt>
      <trkpt lat="43.39074" lon="-4.02359">
        <ele>13</ele>
        <time>2010-01-01T02:43:47Z</time>
      </trkpt>
      <trkpt lat="43.39039" lon="-4.02382">
        <ele>13</ele>
        <time>2010-01-01T02:44:03Z</time>
      </trkpt>
      <trkpt lat="43.39027" lon="-4.02384">
        <ele>14</ele>
        <time>2010-01-01T02:44:08Z</time>
      </trkpt>
      <trkpt lat="43.39023" lon="-4.02394">
        <ele>13</ele>
        <time>2010-01-01T02:44:11Z</time>
      </trkpt>
      <trkpt lat="43.39013" lon="-4.0246">
        <ele>13</ele>
        <time>2010-01-01T02:44:31Z</time>
      </trkpt>
      <trkpt lat="43.38975" lon="-4.02665">
        <ele>15</ele>
        <time>2010-01-01T02:45:32Z</time>
      </trkpt>
      <trkpt lat="43.38995" lon="-4.02723">
        <ele>13</ele>
        <time>2010-01-01T02:45:51Z</time>
      </trkpt>
      <trkpt lat="43.38943" lon="-4.028">
        <ele>17</ele>
        <time>2010-01-01T02:46:21Z</time>
      </trkpt>
      <trkpt lat="43.38927" lon="-4.02814">
        <ele>16</ele>
        <time>2010-01-01T02:46:29Z</time>
      </trkpt>
      <trkpt lat="43.38793" lon="-4.02923">
        <ele>21</ele>
        <time>2010-01-01T02:47:31Z</time>
      </trkpt>
      <trkpt lat="43.38787" lon="-4.02933">
        <ele>21</ele>
        <time>2010-01-01T02:47:35Z</time>
      </trkpt>
      <trkpt lat="43.38762" lon="-4.02992">
        <ele>19</ele>
        <time>2010-01-01T02:47:55Z</time>
      </trkpt>
      <trkpt lat="43.38692" lon="-4.03179">
        <ele>21</ele>
        <time>2010-01-01T02:48:56Z</time>
      </trkpt>
      <trkpt lat="43.38674" lon="-4.03214">
        <ele>20</ele>
        <time>2010-01-01T02:49:09Z</time>
      </trkpt>
      <trkpt lat="43.38648" lon="-4.03247">
        <ele>20</ele>
        <time>2010-01-01T02:49:23Z</time>
      </trkpt>
      <trkpt lat="43.38622" lon="-4.03266">
        <ele>20</ele>
        <time>2010-01-01T02:49:35Z</time>
      </trkpt>
      <trkpt lat="43.38599" lon="-4.03273">
        <ele>20</ele>
        <time>2010-01-01T02:49:44Z</time>
      </trkpt>
      <trkpt lat="43.38443" lon="-4.03289">
        <ele>21</ele>
        <time>2010-01-01T02:50:47Z</time>
      </trkpt>
      <trkpt lat="43.38421" lon="-4.033">
        <ele>18</ele>
        <time>2010-01-01T02:50:56Z</time>
      </trkpt>
      <trkpt lat="43.38273" lon="-4.03459">
        <ele>15</ele>
        <time>2010-01-01T02:52:11Z</time>
      </trkpt>
      <trkpt lat="43.3818" lon="-4.03571">
        <ele>9</ele>
        <time>2010-01-01T02:53:01Z</time>
      </trkpt>
      <trkpt lat="43.38152" lon="-4.03613">
        <ele>7</ele>
        <time>2010-01-01T02:53:17Z</time>
      </trkpt>
      <trkpt lat="43.38118" lon="-4.03673">
        <ele>5</ele>
        <time>2010-01-01T02:53:39Z</time>
      </trkpt>
      <trkpt lat="43.38095" lon="-4.03709">
        <ele>7</ele>
        <time>2010-01-01T02:53:53Z</time>
      </trkpt>
      <trkpt lat="43.38079" lon="-4.03748">
        <ele>7</ele>
        <time>2010-01-01T02:54:06Z</time>
      </trkpt>
      <trkpt lat="43.3808" lon="-4.03754">
        <ele>7</ele>
        <time>2010-01-01T02:54:08Z</time>
      </trkpt>
      <trkpt lat="43.38079" lon="-4.03767">
        <ele>7</ele>
        <time>2010-01-01T02:54:12Z</time>
      </trkpt>
      <trkpt lat="43.38072" lon="-4.03777">
        <ele>7</ele>
        <time>2010-01-01T02:54:16Z</time>
      </trkpt>
      <trkpt lat="43.38066" lon="-4.03779">
        <ele>7</ele>
        <time>2010-01-01T02:54:18Z</time>
      </trkpt>
      <trkpt lat="43.3806" lon="-4.03779">
        <ele>7</ele>
        <time>2010-01-01T02:54:21Z</time>
      </trkpt>
      <trkpt lat="43.38046" lon="-4.03785">
        <ele>6</ele>
        <time>2010-01-01T02:54:27Z</time>
      </trkpt>
      <trkpt lat="43.38032" lon="-4.03791">
        <ele>6</ele>
        <time>2010-01-01T02:54:33Z</time>
      </trkpt>
      <trkpt lat="43.38007" lon="-4.0381">
        <ele>6</ele>
        <time>2010-01-01T02:54:44Z</time>
      </trkpt>
      <trkpt lat="43.3785" lon="-4.0388">
        <ele>8</ele>
        <time>2010-01-01T02:55:50Z</time>
      </trkpt>
      <trkpt lat="43.37836" lon="-4.03891">
        <ele>8</ele>
        <time>2010-01-01T02:55:57Z</time>
      </trkpt>
      <trkpt lat="43.37656" lon="-4.0397">
        <ele>10</ele>
        <time>2010-01-01T02:57:12Z</time>
      </trkpt>
      <trkpt lat="43.37495" lon="-4.04038">
        <ele>10</ele>
        <time>2010-01-01T02:58:20Z</time>
      </trkpt>
      <trkpt lat="43.3745" lon="-4.04051">
        <ele>10</ele>
        <time>2010-01-01T02:58:38Z</time>
      </trkpt>
      <trkpt lat="43.37394" lon="-4.04075">
        <ele>11</ele>
        <time>2010-01-01T02:59:02Z</time>
      </trkpt>
      <trkpt lat="43.37382" lon="-4.04085">
        <ele>11</ele>
        <time>2010-01-01T02:59:07Z</time>
      </trkpt>
      <trkpt lat="43.3735" lon="-4.04098">
        <ele>12</ele>
        <time>2010-01-01T02:59:20Z</time>
      </trkpt>
      <trkpt lat="43.37331" lon="-4.04114">
        <ele>11</ele>
        <time>2010-01-01T02:59:29Z</time>
      </trkpt>
      <trkpt lat="43.37327" lon="-4.04124">
        <ele>11</ele>
        <time>2010-01-01T02:59:33Z</time>
      </trkpt>
      <trkpt lat="43.37326" lon="-4.04135">
        <ele>11</ele>
        <time>2010-01-01T02:59:36Z</time>
      </trkpt>
      <trkpt lat="43.37329" lon="-4.04165">
        <ele>9</ele>
        <time>2010-01-01T02:59:45Z</time>
      </trkpt>
      <trkpt lat="43.37342" lon="-4.04215">
        <ele>8</ele>
        <time>2010-01-01T03:00:00Z</time>
      </trkpt>
      <trkpt lat="43.37359" lon="-4.04273">
        <ele>7</ele>
        <time>2010-01-01T03:00:18Z</time>
      </trkpt>
      <trkpt lat="43.37374" lon="-4.043">
        <ele>7</ele>
        <time>2010-01-01T03:00:28Z</time>
      </trkpt>
      <trkpt lat="43.37392" lon="-4.04314">
        <ele>7</ele>
        <time>2010-01-01T03:00:37Z</time>
      </trkpt>
      <trkpt lat="43.37402" lon="-4.04318">
        <ele>7</ele>
        <time>2010-01-01T03:00:41Z</time>
      </trkpt>
      <trkpt lat="43.37507" lon="-4.04343">
        <ele>7</ele>
        <time>2010-01-01T03:01:23Z</time>
      </trkpt>
      <trkpt lat="43.3753" lon="-4.04351">
        <ele>7</ele>
        <time>2010-01-01T03:01:33Z</time>
      </trkpt>
      <trkpt lat="43.37545" lon="-4.04361">
        <ele>7</ele>
        <time>2010-01-01T03:01:40Z</time>
      </trkpt>
      <trkpt lat="43.37565" lon="-4.04382">
        <ele>6</ele>
        <time>2010-01-01T03:01:50Z</time>
      </trkpt>
      <trkpt lat="43.37768" lon="-4.0478">
        <ele>10</ele>
        <time>2010-01-01T03:04:11Z</time>
      </trkpt>
      <trkpt lat="43.37794" lon="-4.04823">
        <ele>13</ele>
        <time>2010-01-01T03:04:27Z</time>
      </trkpt>
      <trkpt lat="43.37804" lon="-4.04831">
        <ele>13</ele>
        <time>2010-01-01T03:04:32Z</time>
      </trkpt>
      <trkpt lat="43.37807" lon="-4.04838">
        <ele>14</ele>
        <time>2010-01-01T03:04:34Z</time>
      </trkpt>
      <trkpt lat="43.37826" lon="-4.04846">
        <ele>15</ele>
        <time>2010-01-01T03:04:42Z</time>
      </trkpt>
      <trkpt lat="43.37842" lon="-4.0485">
        <ele>17</ele>
        <time>2010-01-01T03:04:49Z</time>
      </trkpt>
      <trkpt lat="43.37862" lon="-4.04842">
        <ele>17</ele>
        <time>2010-01-01T03:04:57Z</time>
      </trkpt>
      <trkpt lat="43.37911" lon="-4.04814">
        <ele>17</ele>
        <time>2010-01-01T03:05:18Z</time>
      </trkpt>
      <trkpt lat="43.37939" lon="-4.04807">
        <ele>17</ele>
        <time>2010-01-01T03:05:30Z</time>
      </trkpt>
      <trkpt lat="43.37956" lon="-4.04809">
        <ele>19</ele>
        <time>2010-01-01T03:05:37Z</time>
      </trkpt>
      <trkpt lat="43.37971" lon="-4.04814">
        <ele>20</ele>
        <time>2010-01-01T03:05:43Z</time>
      </trkpt>
      <trkpt lat="43.38131" lon="-4.04906">
        <ele>21</ele>
        <time>2010-01-01T03:06:52Z</time>
      </trkpt>
      <trkpt lat="43.38072" lon="-4.05035">
        <ele>36</ele>
        <time>2010-01-01T03:07:37Z</time>
      </trkpt>
      <trkpt lat="43.3807" lon="-4.05047">
        <ele>36</ele>
        <time>2010-01-01T03:07:40Z</time>
      </trkpt>
      <trkpt lat="43.38073" lon="-4.05055">
        <ele>36</ele>
        <time>2010-01-01T03:07:43Z</time>
      </trkpt>
      <trkpt lat="43.38137" lon="-4.05139">
        <ele>36</ele>
        <time>2010-01-01T03:08:18Z</time>
      </trkpt>
      <trkpt lat="43.38166" lon="-4.05166">
        <ele>36</ele>
        <time>2010-01-01T03:08:32Z</time>
      </trkpt>
      <trkpt lat="43.38205" lon="-4.05198">
        <ele>41</ele>
        <time>2010-01-01T03:08:50Z</time>
      </trkpt>
      <trkpt lat="43.38221" lon="-4.05217">
        <ele>43</ele>
        <time>2010-01-01T03:08:59Z</time>
      </trkpt>
      <trkpt lat="43.38225" lon="-4.05227">
        <ele>44</ele>
        <time>2010-01-01T03:09:02Z</time>
      </trkpt>
      <trkpt lat="43.38249" lon="-4.05301">
        <ele>48</ele>
        <time>2010-01-01T03:09:26Z</time>
      </trkpt>
      <trkpt lat="43.38258" lon="-4.05326">
        <ele>50</ele>
        <time>2010-01-01T03:09:34Z</time>
      </trkpt>
      <trkpt lat="43.38267" lon="-4.05341">
        <ele>51</ele>
        <time>2010-01-01T03:09:40Z</time>
      </trkpt>
      <trkpt lat="43.38292" lon="-4.05365">
        <ele>54</ele>
        <time>2010-01-01T03:09:52Z</time>
      </trkpt>
      <trkpt lat="43.38298" lon="-4.05375">
        <ele>55</ele>
        <time>2010-01-01T03:09:55Z</time>
      </trkpt>
      <trkpt lat="43.383" lon="-4.05388">
        <ele>57</ele>
        <time>2010-01-01T03:09:59Z</time>
      </trkpt>
      <trkpt lat="43.38299" lon="-4.05402">
        <ele>58</ele>
        <time>2010-01-01T03:10:03Z</time>
      </trkpt>
      <trkpt lat="43.38291" lon="-4.05429">
        <ele>60</ele>
        <time>2010-01-01T03:10:12Z</time>
      </trkpt>
      <trkpt lat="43.38292" lon="-4.05454">
        <ele>60</ele>
        <time>2010-01-01T03:10:19Z</time>
      </trkpt>
      <trkpt lat="43.38298" lon="-4.05518">
        <ele>58</ele>
        <time>2010-01-01T03:10:38Z</time>
      </trkpt>
      <trkpt lat="43.38307" lon="-4.05575">
        <ele>55</ele>
        <time>2010-01-01T03:10:55Z</time>
      </trkpt>
      <trkpt lat="43.38316" lon="-4.05603">
        <ele>54</ele>
        <time>2010-01-01T03:11:04Z</time>
      </trkpt>
      <trkpt lat="43.3833" lon="-4.0563">
        <ele>54</ele>
        <time>2010-01-01T03:11:14Z</time>
      </trkpt>
      <trkpt lat="43.38347" lon="-4.05667">
        <ele>52</ele>
        <time>2010-01-01T03:11:26Z</time>
      </trkpt>
      <trkpt lat="43.38402" lon="-4.05837">
        <ele>42</ele>
        <time>2010-01-01T03:12:20Z</time>
      </trkpt>
      <trkpt lat="43.3841" lon="-4.05858">
        <ele>42</ele>
        <time>2010-01-01T03:12:27Z</time>
      </trkpt>
      <trkpt lat="43.38427" lon="-4.05886">
        <ele>40</ele>
        <time>2010-01-01T03:12:38Z</time>
      </trkpt>
      <trkpt lat="43.38443" lon="-4.05904">
        <ele>40</ele>
        <time>2010-01-01T03:12:46Z</time>
      </trkpt>
      <trkpt lat="43.38498" lon="-4.05949">
        <ele>35</ele>
        <time>2010-01-01T03:13:12Z</time>
      </trkpt>
      <trkpt lat="43.38534" lon="-4.0597">
        <ele>36</ele>
        <time>2010-01-01T03:13:27Z</time>
      </trkpt>
      <trkpt lat="43.38613" lon="-4.05993">
        <ele>40</ele>
        <time>2010-01-01T03:14:00Z</time>
      </trkpt>
      <trkpt lat="43.38657" lon="-4.05993">
        <ele>45</ele>
        <time>2010-01-01T03:14:17Z</time>
      </trkpt>
      <trkpt lat="43.38703" lon="-4.05972">
        <ele>51</ele>
        <time>2010-01-01T03:14:37Z</time>
      </trkpt>
      <trkpt lat="43.38716" lon="-4.05972">
        <ele>53</ele>
        <time>2010-01-01T03:14:42Z</time>
      </trkpt>
      <trkpt lat="43.3873" lon="-4.05983">
        <ele>54</ele>
        <time>2010-01-01T03:14:48Z</time>
      </trkpt>
      <trkpt lat="43.38742" lon="-4.05999">
        <ele>56</ele>
        <time>2010-01-01T03:14:55Z</time>
      </trkpt>
      <trkpt lat="43.38766" lon="-4.06041">
        <ele>57</ele>
        <time>2010-01-01T03:15:11Z</time>
      </trkpt>
      <trkpt lat="43.38771" lon="-4.06061">
        <ele>57</ele>
        <time>2010-01-01T03:15:17Z</time>
      </trkpt>
      <trkpt lat="43.38773" lon="-4.06085">
        <ele>57</ele>
        <time>2010-01-01T03:15:24Z</time>
      </trkpt>
      <trkpt lat="43.3878" lon="-4.0612">
        <ele>58</ele>
        <time>2010-01-01T03:15:34Z</time>
      </trkpt>
      <trkpt lat="43.3879" lon="-4.06147">
        <ele>59</ele>
        <time>2010-01-01T03:15:43Z</time>
      </trkpt>
      <trkpt lat="43.38834" lon="-4.06232">
        <ele>63</ele>
        <time>2010-01-01T03:16:14Z</time>
      </trkpt>
      <trkpt lat="43.38843" lon="-4.06253">
        <ele>63</ele>
        <time>2010-01-01T03:16:21Z</time>
      </trkpt>
      <trkpt lat="43.38851" lon="-4.06303">
        <ele>62</ele>
        <time>2010-01-01T03:16:36Z</time>
      </trkpt>
      <trkpt lat="43.38859" lon="-4.06332">
        <ele>62</ele>
        <time>2010-01-01T03:16:45Z</time>
      </trkpt>
      <trkpt lat="43.38868" lon="-4.06346">
        <ele>63</ele>
        <time>2010-01-01T03:16:50Z</time>
      </trkpt>
      <trkpt lat="43.38873" lon="-4.06351">
        <ele>63</ele>
        <time>2010-01-01T03:16:52Z</time>
      </trkpt>
      <trkpt lat="43.38889" lon="-4.06357">
        <ele>64</ele>
        <time>2010-01-01T03:16:59Z</time>
      </trkpt>
      <trkpt lat="43.38907" lon="-4.06359">
        <ele>65</ele>
        <time>2010-01-01T03:17:06Z</time>
      </trkpt>
      <trkpt lat="43.3895" lon="-4.06358">
        <ele>67</ele>
        <time>2010-01-01T03:17:24Z</time>
      </trkpt>
      <trkpt lat="43.38976" lon="-4.06364">
        <ele>68</ele>
        <time>2010-01-01T03:17:34Z</time>
      </trkpt>
      <trkpt lat="43.39057" lon="-4.06419">
        <ele>70</ele>
        <time>2010-01-01T03:18:10Z</time>
      </trkpt>
      <trkpt lat="43.3907" lon="-4.06432">
        <ele>70</ele>
        <time>2010-01-01T03:18:17Z</time>
      </trkpt>
      <trkpt lat="43.39119" lon="-4.06495">
        <ele>68</ele>
        <time>2010-01-01T03:18:44Z</time>
      </trkpt>
      <trkpt lat="43.39129" lon="-4.06512">
        <ele>68</ele>
        <time>2010-01-01T03:18:50Z</time>
      </trkpt>
      <trkpt lat="43.3925" lon="-4.06786">
        <ele>79</ele>
        <time>2010-01-01T03:20:23Z</time>
      </trkpt>
      <trkpt lat="43.39255" lon="-4.06809">
        <ele>80</ele>
        <time>2010-01-01T03:20:30Z</time>
      </trkpt>
      <trkpt lat="43.39259" lon="-4.06838">
        <ele>82</ele>
        <time>2010-01-01T03:20:39Z</time>
      </trkpt>
      <trkpt lat="43.39265" lon="-4.06854">
        <ele>82</ele>
        <time>2010-01-01T03:20:44Z</time>
      </trkpt>
      <trkpt lat="43.39278" lon="-4.06878">
        <ele>82</ele>
        <time>2010-01-01T03:20:53Z</time>
      </trkpt>
      <trkpt lat="43.39348" lon="-4.06977">
        <ele>81</ele>
        <time>2010-01-01T03:21:33Z</time>
      </trkpt>
      <trkpt lat="43.39459" lon="-4.07123">
        <ele>74</ele>
        <time>2010-01-01T03:22:34Z</time>
      </trkpt>
      <trkpt lat="43.39472" lon="-4.07143">
        <ele>75</ele>
        <time>2010-01-01T03:22:42Z</time>
      </trkpt>
      <trkpt lat="43.39487" lon="-4.072">
        <ele>76</ele>
        <time>2010-01-01T03:23:00Z</time>
      </trkpt>
      <trkpt lat="43.39496" lon="-4.07225">
        <ele>76</ele>
        <time>2010-01-01T03:23:08Z</time>
      </trkpt>
      <trkpt lat="43.39529" lon="-4.07285">
        <ele>77</ele>
        <time>2010-01-01T03:23:30Z</time>
      </trkpt>
      <trkpt lat="43.39551" lon="-4.07311">
        <ele>77</ele>
        <time>2010-01-01T03:23:41Z</time>
      </trkpt>
      <trkpt lat="43.39601" lon="-4.07362">
        <ele>79</ele>
        <time>2010-01-01T03:24:06Z</time>
      </trkpt>
      <trkpt lat="43.39611" lon="-4.07381">
        <ele>80</ele>
        <time>2010-01-01T03:24:13Z</time>
      </trkpt>
      <trkpt lat="43.39643" lon="-4.07513">
        <ele>84</ele>
        <time>2010-01-01T03:24:54Z</time>
      </trkpt>
      <trkpt lat="43.39662" lon="-4.076">
        <ele>84</ele>
        <time>2010-01-01T03:25:20Z</time>
      </trkpt>
      <trkpt lat="43.39666" lon="-4.07624">
        <ele>85</ele>
        <time>2010-01-01T03:25:27Z</time>
      </trkpt>
      <trkpt lat="43.39668" lon="-4.07665">
        <ele>86</ele>
        <time>2010-01-01T03:25:39Z</time>
      </trkpt>
      <trkpt lat="43.39665" lon="-4.07717">
        <ele>89</ele>
        <time>2010-01-01T03:25:54Z</time>
      </trkpt>
      <trkpt lat="43.39662" lon="-4.07744">
        <ele>90</ele>
        <time>2010-01-01T03:26:02Z</time>
      </trkpt>
      <trkpt lat="43.39655" lon="-4.07763">
        <ele>91</ele>
        <time>2010-01-01T03:26:08Z</time>
      </trkpt>
      <trkpt lat="43.39633" lon="-4.07794">
        <ele>92</ele>
        <time>2010-01-01T03:26:21Z</time>
      </trkpt>
      <trkpt lat="43.39608" lon="-4.07841">
        <ele>94</ele>
        <time>2010-01-01T03:26:38Z</time>
      </trkpt>
      <trkpt lat="43.39549" lon="-4.07977">
        <ele>92</ele>
        <time>2010-01-01T03:27:24Z</time>
      </trkpt>
      <trkpt lat="43.39536" lon="-4.08018">
        <ele>92</ele>
        <time>2010-01-01T03:27:37Z</time>
      </trkpt>
      <trkpt lat="43.39536" lon="-4.08054">
        <ele>93</ele>
        <time>2010-01-01T03:27:48Z</time>
      </trkpt>
      <trkpt lat="43.39524" lon="-4.08059">
        <ele>94</ele>
        <time>2010-01-01T03:27:53Z</time>
      </trkpt>
      <trkpt lat="43.39494" lon="-4.08065">
        <ele>95</ele>
        <time>2010-01-01T03:28:05Z</time>
      </trkpt>
      <trkpt lat="43.39466" lon="-4.08067">
        <ele>95</ele>
        <time>2010-01-01T03:28:16Z</time>
      </trkpt>
      <trkpt lat="43.39443" lon="-4.08066">
        <ele>95</ele>
        <time>2010-01-01T03:28:25Z</time>
      </trkpt>
      <trkpt lat="43.39374" lon="-4.08056">
        <ele>91</ele>
        <time>2010-01-01T03:28:53Z</time>
      </trkpt>
      <trkpt lat="43.3929" lon="-4.08032">
        <ele>85</ele>
        <time>2010-01-01T03:29:27Z</time>
      </trkpt>
      <trkpt lat="43.39132" lon="-4.07982">
        <ele>81</ele>
        <time>2010-01-01T03:30:32Z</time>
      </trkpt>
      <trkpt lat="43.39132" lon="-4.07981">
        <ele>81</ele>
        <time>2010-01-01T03:30:32Z</time>
      </trkpt>
      <trkpt lat="43.3929" lon="-4.08032">
        <ele>85</ele>
        <time>2010-01-01T03:31:37Z</time>
      </trkpt>
      <trkpt lat="43.39374" lon="-4.08056">
        <ele>91</ele>
        <time>2010-01-01T03:32:12Z</time>
      </trkpt>
      <trkpt lat="43.39443" lon="-4.08066">
        <ele>95</ele>
        <time>2010-01-01T03:32:40Z</time>
      </trkpt>
      <trkpt lat="43.39466" lon="-4.08067">
        <ele>95</ele>
        <time>2010-01-01T03:32:49Z</time>
      </trkpt>
      <trkpt lat="43.39494" lon="-4.08065">
        <ele>95</ele>
        <time>2010-01-01T03:33:00Z</time>
      </trkpt>
      <trkpt lat="43.39524" lon="-4.08059">
        <ele>94</ele>
        <time>2010-01-01T03:33:12Z</time>
      </trkpt>
      <trkpt lat="43.39536" lon="-4.08054">
        <ele>93</ele>
        <time>2010-01-01T03:33:17Z</time>
      </trkpt>
      <trkpt lat="43.39552" lon="-4.08166">
        <ele>91</ele>
        <time>2010-01-01T03:33:50Z</time>
      </trkpt>
      <trkpt lat="43.3956" lon="-4.08206">
        <ele>87</ele>
        <time>2010-01-01T03:34:02Z</time>
      </trkpt>
      <trkpt lat="43.39563" lon="-4.08212">
        <ele>87</ele>
        <time>2010-01-01T03:34:05Z</time>
      </trkpt>
      <trkpt lat="43.39602" lon="-4.08247">
        <ele>86</ele>
        <time>2010-01-01T03:34:23Z</time>
      </trkpt>
      <trkpt lat="43.3961" lon="-4.08258">
        <ele>85</ele>
        <time>2010-01-01T03:34:28Z</time>
      </trkpt>
      <trkpt lat="43.39615" lon="-4.08273">
        <ele>84</ele>
        <time>2010-01-01T03:34:32Z</time>
      </trkpt>
      <trkpt lat="43.39615" lon="-4.08286">
        <ele>84</ele>
        <time>2010-01-01T03:34:36Z</time>
      </trkpt>
      <trkpt lat="43.39613" lon="-4.08295">
        <ele>83</ele>
        <time>2010-01-01T03:34:39Z</time>
      </trkpt>
      <trkpt lat="43.39609" lon="-4.08305">
        <ele>82</ele>
        <time>2010-01-01T03:34:42Z</time>
      </trkpt>
      <trkpt lat="43.3959" lon="-4.0833">
        <ele>84</ele>
        <time>2010-01-01T03:34:53Z</time>
      </trkpt>
      <trkpt lat="43.39583" lon="-4.08344">
        <ele>85</ele>
        <time>2010-01-01T03:34:58Z</time>
      </trkpt>
      <trkpt lat="43.39578" lon="-4.08359">
        <ele>87</ele>
        <time>2010-01-01T03:35:03Z</time>
      </trkpt>
      <trkpt lat="43.39576" lon="-4.08392">
        <ele>88</ele>
        <time>2010-01-01T03:35:12Z</time>
      </trkpt>
      <trkpt lat="43.39578" lon="-4.08411">
        <ele>88</ele>
        <time>2010-01-01T03:35:18Z</time>
      </trkpt>
      <trkpt lat="43.39581" lon="-4.08502">
        <ele>90</ele>
        <time>2010-01-01T03:35:44Z</time>
      </trkpt>
      <trkpt lat="43.39579" lon="-4.08558">
        <ele>91</ele>
        <time>2010-01-01T03:36:01Z</time>
      </trkpt>
      <trkpt lat="43.39562" lon="-4.0868">
        <ele>89</ele>
        <time>2010-01-01T03:36:37Z</time>
      </trkpt>
      <trkpt lat="43.39563" lon="-4.08715">
        <ele>89</ele>
        <time>2010-01-01T03:36:47Z</time>
      </trkpt>
      <trkpt lat="43.39571" lon="-4.08824">
        <ele>86</ele>
        <time>2010-01-01T03:37:19Z</time>
      </trkpt>
      <trkpt lat="43.39576" lon="-4.08872">
        <ele>85</ele>
        <time>2010-01-01T03:37:33Z</time>
      </trkpt>
      <trkpt lat="43.39577" lon="-4.08894">
        <ele>85</ele>
        <time>2010-01-01T03:37:39Z</time>
      </trkpt>
      <trkpt lat="43.39574" lon="-4.08918">
        <ele>84</ele>
        <time>2010-01-01T03:37:46Z</time>
      </trkpt>
      <trkpt lat="43.39556" lon="-4.08968">
        <ele>86</ele>
        <time>2010-01-01T03:38:03Z</time>
      </trkpt>
      <trkpt lat="43.39554" lon="-4.08978">
        <ele>87</ele>
        <time>2010-01-01T03:38:06Z</time>
      </trkpt>
      <trkpt lat="43.39549" lon="-4.09034">
        <ele>90</ele>
        <time>2010-01-01T03:38:22Z</time>
      </trkpt>
      <trkpt lat="43.39543" lon="-4.09064">
        <ele>93</ele>
        <time>2010-01-01T03:38:31Z</time>
      </trkpt>
      <trkpt lat="43.39539" lon="-4.0907">
        <ele>93</ele>
        <time>2010-01-01T03:38:33Z</time>
      </trkpt>
      <trkpt lat="43.39526" lon="-4.09084">
        <ele>94</ele>
        <time>2010-01-01T03:38:40Z</time>
      </trkpt>
      <trkpt lat="43.39492" lon="-4.09113">
        <ele>98</ele>
        <time>2010-01-01T03:38:56Z</time>
      </trkpt>
      <trkpt lat="43.39469" lon="-4.09127">
        <ele>101</ele>
        <time>2010-01-01T03:39:06Z</time>
      </trkpt>
      <trkpt lat="43.39418" lon="-4.09146">
        <ele>105</ele>
        <time>2010-01-01T03:39:27Z</time>
      </trkpt>
      <trkpt lat="43.39327" lon="-4.09243">
        <ele>116</ele>
        <time>2010-01-01T03:40:13Z</time>
      </trkpt>
      <trkpt lat="43.39318" lon="-4.09247">
        <ele>116</ele>
        <time>2010-01-01T03:40:17Z</time>
      </trkpt>
      <trkpt lat="43.39304" lon="-4.09256">
        <ele>117</ele>
        <time>2010-01-01T03:40:23Z</time>
      </trkpt>
      <trkpt lat="43.3927" lon="-4.09284">
        <ele>119</ele>
        <time>2010-01-01T03:40:39Z</time>
      </trkpt>
      <trkpt lat="43.39259" lon="-4.093">
        <ele>121</ele>
        <time>2010-01-01T03:40:46Z</time>
      </trkpt>
      <trkpt lat="43.39241" lon="-4.09336">
        <ele>122</ele>
        <time>2010-01-01T03:40:58Z</time>
      </trkpt>
      <trkpt lat="43.39222" lon="-4.09382">
        <ele>123</ele>
        <time>2010-01-01T03:41:14Z</time>
      </trkpt>
      <trkpt lat="43.39197" lon="-4.0941">
        <ele>124</ele>
        <time>2010-01-01T03:41:27Z</time>
      </trkpt>
      <trkpt lat="43.39128" lon="-4.0947">
        <ele>120</ele>
        <time>2010-01-01T03:41:59Z</time>
      </trkpt>
      <trkpt lat="43.39114" lon="-4.09484">
        <ele>119</ele>
        <time>2010-01-01T03:42:06Z</time>
      </trkpt>
      <trkpt lat="43.39118" lon="-4.09493">
        <ele>120</ele>
        <time>2010-01-01T03:42:09Z</time>
      </trkpt>
      <trkpt lat="43.39124" lon="-4.09506">
        <ele>120</ele>
        <time>2010-01-01T03:42:14Z</time>
      </trkpt>
      <trkpt lat="43.3913" lon="-4.09527">
        <ele>121</ele>
        <time>2010-01-01T03:42:20Z</time>
      </trkpt>
      <trkpt lat="43.39134" lon="-4.09547">
        <ele>122</ele>
        <time>2010-01-01T03:42:26Z</time>
      </trkpt>
      <trkpt lat="43.39141" lon="-4.09609">
        <ele>123</ele>
        <time>2010-01-01T03:42:45Z</time>
      </trkpt>
      <trkpt lat="43.39146" lon="-4.09627">
        <ele>123</ele>
        <time>2010-01-01T03:42:50Z</time>
      </trkpt>
      <trkpt lat="43.39151" lon="-4.0964">
        <ele>124</ele>
        <time>2010-01-01T03:42:55Z</time>
      </trkpt>
      <trkpt lat="43.39159" lon="-4.09653">
        <ele>124</ele>
        <time>2010-01-01T03:42:59Z</time>
      </trkpt>
      <trkpt lat="43.39182" lon="-4.09713">
        <ele>123</ele>
        <time>2010-01-01T03:43:19Z</time>
      </trkpt>
      <trkpt lat="43.3919" lon="-4.0975">
        <ele>122</ele>
        <time>2010-01-01T03:43:30Z</time>
      </trkpt>
      <trkpt lat="43.39191" lon="-4.09769">
        <ele>121</ele>
        <time>2010-01-01T03:43:36Z</time>
      </trkpt>
      <trkpt lat="43.39189" lon="-4.09781">
        <ele>120</ele>
        <time>2010-01-01T03:43:40Z</time>
      </trkpt>
      <trkpt lat="43.39184" lon="-4.0979">
        <ele>119</ele>
        <time>2010-01-01T03:43:43Z</time>
      </trkpt>
      <trkpt lat="43.39113" lon="-4.09845">
        <ele>112</ele>
        <time>2010-01-01T03:44:15Z</time>
      </trkpt>
      <trkpt lat="43.39104" lon="-4.09855">
        <ele>111</ele>
        <time>2010-01-01T03:44:20Z</time>
      </trkpt>
      <trkpt lat="43.39098" lon="-4.09866">
        <ele>111</ele>
        <time>2010-01-01T03:44:24Z</time>
      </trkpt>
      <trkpt lat="43.39095" lon="-4.09882">
        <ele>111</ele>
        <time>2010-01-01T03:44:29Z</time>
      </trkpt>
      <trkpt lat="43.39096" lon="-4.09897">
        <ele>111</ele>
        <time>2010-01-01T03:44:33Z</time>
      </trkpt>
      <trkpt lat="43.39101" lon="-4.09915">
        <ele>111</ele>
        <time>2010-01-01T03:44:39Z</time>
      </trkpt>
      <trkpt lat="43.3911" lon="-4.09932">
        <ele>110</ele>
        <time>2010-01-01T03:44:45Z</time>
      </trkpt>
      <trkpt lat="43.39162" lon="-4.10008">
        <ele>109</ele>
        <time>2010-01-01T03:45:15Z</time>
      </trkpt>
      <trkpt lat="43.39171" lon="-4.10025">
        <ele>108</ele>
        <time>2010-01-01T03:45:21Z</time>
      </trkpt>
      <trkpt lat="43.39187" lon="-4.10077">
        <ele>102</ele>
        <time>2010-01-01T03:45:38Z</time>
      </trkpt>
      <trkpt lat="43.39202" lon="-4.10118">
        <ele>98</ele>
        <time>2010-01-01T03:45:51Z</time>
      </trkpt>
      <trkpt lat="43.39229" lon="-4.10166">
        <ele>96</ele>
        <time>2010-01-01T03:46:09Z</time>
      </trkpt>
      <trkpt lat="43.39249" lon="-4.10216">
        <ele>96</ele>
        <time>2010-01-01T03:46:26Z</time>
      </trkpt>
      <trkpt lat="43.39256" lon="-4.10238">
        <ele>95</ele>
        <time>2010-01-01T03:46:33Z</time>
      </trkpt>
      <trkpt lat="43.3926" lon="-4.10258">
        <ele>94</ele>
        <time>2010-01-01T03:46:39Z</time>
      </trkpt>
      <trkpt lat="43.39262" lon="-4.10295">
        <ele>93</ele>
        <time>2010-01-01T03:46:49Z</time>
      </trkpt>
      <trkpt lat="43.39262" lon="-4.10364">
        <ele>87</ele>
        <time>2010-01-01T03:47:09Z</time>
      </trkpt>
      <trkpt lat="43.39262" lon="-4.10381">
        <ele>85</ele>
        <time>2010-01-01T03:47:14Z</time>
      </trkpt>
      <trkpt lat="43.39258" lon="-4.10399">
        <ele>83</ele>
        <time>2010-01-01T03:47:20Z</time>
      </trkpt>
      <trkpt lat="43.39243" lon="-4.10436">
        <ele>81</ele>
        <time>2010-01-01T03:47:32Z</time>
      </trkpt>
      <trkpt lat="43.3923" lon="-4.10507">
        <ele>82</ele>
        <time>2010-01-01T03:47:53Z</time>
      </trkpt>
      <trkpt lat="43.39225" lon="-4.10555">
        <ele>86</ele>
        <time>2010-01-01T03:48:08Z</time>
      </trkpt>
      <trkpt lat="43.39212" lon="-4.10577">
        <ele>86</ele>
        <time>2010-01-01T03:48:16Z</time>
      </trkpt>
      <trkpt lat="43.39204" lon="-4.10581">
        <ele>85</ele>
        <time>2010-01-01T03:48:19Z</time>
      </trkpt>
      <trkpt lat="43.39205" lon="-4.10591">
        <ele>85</ele>
        <time>2010-01-01T03:48:22Z</time>
      </trkpt>
      <trkpt lat="43.39168" lon="-4.10621">
        <ele>82</ele>
        <time>2010-01-01T03:48:39Z</time>
      </trkpt>
      <trkpt lat="43.39149" lon="-4.10634">
        <ele>82</ele>
        <time>2010-01-01T03:48:48Z</time>
      </trkpt>
      <trkpt lat="43.39133" lon="-4.10657">
        <ele>82</ele>
        <time>2010-01-01T03:48:57Z</time>
      </trkpt>
      <trkpt lat="43.39113" lon="-4.1068">
        <ele>82</ele>
        <time>2010-01-01T03:49:08Z</time>
      </trkpt>
    </trkseg>
  </trk>
</gpx>